<- Previous Day | Today | Next Day ->

All Data for 25 October 2020

 

Time A - D Temp A - D Dew Point A - D Humidity A - D Pressure A - D Wind A - D Wind Dir Gust A - D Rain Rate A - D Rain Total
00:00 9.7 5.7 76 995.1 16.8 SW 19.0 0.0 0.0
00:01 9.7 5.7 76 995.1 15.2 W 19.0 0.0 0.0
00:02 9.7 5.7 76 994.9 12.1 SW 19.0 0.0 0.0
00:03 9.7 5.7 76 994.9 17.4 SW 19.0 0.0 0.0
00:04 9.7 5.5 75 994.8 16.8 WSW 19.0 0.0 0.0
00:05 9.7 5.5 75 995.2 14.5 W 19.0 0.0 0.0
00:06 9.7 5.5 75 995.0 17.4 SW 17.4 0.0 0.0
00:07 9.7 5.5 75 995.0 17.4 SW 17.4 0.0 0.0
00:08 9.7 5.5 75 995.3 15.2 SW 17.4 0.0 0.0
00:09 9.8 5.6 75 995.3 13.6 W 17.4 0.0 0.0
00:10 9.8 5.6 75 995.4 15.9 SW 17.4 0.0 0.0
00:11 9.8 5.6 75 995.3 15.9 WNW 17.4 0.0 0.0
00:12 9.8 5.6 75 995.4 17.4 W 17.4 0.0 0.0
00:13 9.8 5.6 75 995.1 11.4 SW 17.4 0.0 0.0
00:14 9.8 5.6 75 995.4 11.4 SW 17.4 0.0 0.0
00:15 9.8 5.6 75 995.1 12.1 SW 17.4 0.0 0.0
00:16 9.8 5.6 75 995.2 14.5 W 17.4 0.0 0.0
00:17 9.8 5.6 75 995.0 14.5 S 17.4 0.0 0.0
00:18 9.9 5.7 75 995.2 10.7 SW 17.4 0.0 0.0
00:19 9.9 5.7 75 995.3 12.1 W 17.4 0.0 0.0
00:20 9.9 5.7 75 995.2 11.4 W 17.4 0.0 0.0
00:21 9.9 5.9 76 995.2 15.9 SW 17.4 0.0 0.0
00:22 9.9 5.9 76 995.3 18.3 SW 18.3 0.8 0.1
00:23 9.9 5.9 76 995.3 18.3 SW 18.3 0.8 0.1
00:24 9.9 5.9 76 995.2 17.4 SW 18.3 0.8 0.1
00:25 9.9 5.9 76 995.3 18.3 SW 18.3 0.8 0.1
00:26 9.9 5.9 76 995.2 13.6 SW 18.3 0.8 0.1
00:27 9.9 5.9 76 995.3 15.2 S 18.3 0.0 0.1
00:28 9.9 5.9 76 995.1 15.2 SW 18.3 0.0 0.1
00:29 9.9 5.9 76 995.4 14.5 SW 18.3 0.0 0.1
00:30 9.8 5.8 76 995.0 17.4 SW 18.3 0.0 0.1
00:31 9.8 5.8 76 995.2 17.4 SW 18.3 0.0 0.1
00:32 9.8 5.8 76 995.3 15.2 W 18.3 0.0 0.1
00:33 9.8 5.8 76 995.1 13.6 SW 18.3 0.0 0.1
00:34 9.8 5.8 76 995.2 13.0 SW 18.3 0.0 0.1
00:35 9.8 5.8 76 995.2 13.0 SW 18.3 0.0 0.1
00:36 9.7 5.7 76 994.9 13.0 SW 18.3 0.0 0.1
00:37 9.7 5.7 76 995.1 14.5 SW 18.3 0.0 0.1
00:38 9.7 5.7 76 995.0 15.9 S 18.3 0.0 0.1
00:39 9.7 5.7 76 995.1 15.9 WSW 18.3 0.0 0.1
00:40 9.6 5.6 76 995.1 14.5 WNW 18.3 0.0 0.1
00:41 9.6 5.6 76 994.9 21.3 W 21.3 0.0 0.1
00:42 9.6 5.6 76 994.8 21.3 W 21.3 0.0 0.1
00:43 9.6 5.4 75 995.1 11.4 W 21.3 0.0 0.1
00:44 9.6 5.4 75 995.0 15.9 SW 21.3 0.0 0.1
00:45 9.6 5.4 75 995.1 10.7 SW 21.3 0.0 0.1
00:46 9.5 5.3 75 995.0 16.8 W 21.3 0.0 0.1
00:47 9.5 5.3 75 995.0 16.8 W 21.3 0.0 0.1
00:48 9.5 5.3 75 994.9 17.4 WNW 21.3 0.0 0.1
00:49 9.5 5.3 75 994.7 17.4 SW 21.3 0.0 0.1
00:50 9.5 5.3 75 994.8 15.9 SW 21.3 0.0 0.1
00:51 9.5 5.3 75 994.9 17.4 SW 21.3 0.0 0.1
00:52 9.5 5.3 75 994.8 18.3 SW 21.3 0.0 0.1
00:53 9.5 5.3 75 994.9 15.2 SW 18.3 0.0 0.1
00:54 9.5 5.3 75 994.8 12.1 SW 18.3 0.0 0.1
00:55 9.5 5.3 75 995.0 12.1 SW 18.3 0.0 0.1
00:56 9.5 5.3 75 994.8 13.6 W 18.3 0.0 0.1
00:57 9.4 5.2 75 994.9 13.0 SW 18.3 0.0 0.1
00:58 9.4 5.2 75 994.9 13.6 SW 18.3 0.0 0.1
00:59 9.4 5.2 75 994.6 15.2 SW 18.3 0.0 0.1
01:00 9.4 5.2 75 994.8 15.9 SE 18.3 0.0 0.1
01:00 9.3 4.3 71 994.5 14.5 S 19.7 0.0 0.1
01:01 9.4 5.2 75 994.9 15.9 SE 18.3 0.0 0.1
01:01 9.3 4.3 71 994.6 11.4 SW 21.3 0.0 0.1
01:02 9.4 5.2 75 994.8 15.9 SE 18.3 0.0 0.1
01:02 9.3 4.3 71 994.7 16.8 SSW 21.3 0.0 0.1
01:03 9.4 5.2 75 994.8 15.9 SE 15.9 0.0 0.1
01:03 9.3 4.3 71 994.7 15.9 SW 21.3 0.0 0.1
01:04 9.4 5.2 75 994.9 15.9 SE 15.9 0.0 0.1
01:04 9.3 4.3 71 994.7 16.8 W 21.3 0.0 0.1
01:05 9.4 5.2 75 994.8 15.9 SE 15.9 0.0 0.1
01:05 9.3 4.3 71 994.6 16.8 SW 21.3 0.0 0.1
01:06 9.4 5.2 75 994.8 15.9 SE 15.9 0.0 0.1
01:06 9.3 4.3 71 994.5 15.2 W 21.3 0.0 0.1
01:07 9.5 5.3 75 994.7 14.5 SW 15.9 0.0 0.1
01:07 9.3 4.3 71 994.6 14.5 SW 21.3 0.0 0.1
01:08 9.5 5.1 74 994.8 15.2 SW 15.9 0.0 0.1
01:08 9.3 4.3 71 994.5 16.8 SW 21.3 0.0 0.1
01:09 9.5 5.1 74 994.5 12.1 WNW 15.9 0.0 0.1
01:09 9.3 4.3 71 994.6 22.8 S 22.8 0.0 0.1
01:10 9.5 5.1 74 994.6 13.0 SW 15.9 0.0 0.1
01:10 9.3 4.3 71 994.6 17.4 W 22.8 0.0 0.1
01:11 9.5 5.1 74 994.6 21.3 SW 21.3 0.0 0.1
01:11 9.4 4.4 71 994.5 15.2 SW 22.8 0.0 0.1
01:12 9.5 5.1 74 994.6 21.3 SW 21.3 0.0 0.1
01:12 9.4 4.4 71 994.3 17.4 SW 22.8 0.0 0.1
01:13 9.5 5.1 74 994.7 16.8 SW 21.3 0.0 0.1
01:13 9.4 4.4 71 994.6 15.9 S 22.8 0.0 0.1
01:14 9.5 4.9 73 994.6 15.9 SW 21.3 0.0 0.1
01:14 9.4 4.4 71 994.5 17.4 SW 22.8 0.0 0.1
01:15 9.5 4.9 73 994.4 19.0 SW 21.3 0.0 0.1
01:15 9.4 4.4 71 994.6 15.9 SW 22.8 0.0 0.1
01:16 9.6 5.0 73 994.6 17.4 SW 21.3 0.0 0.1
01:16 9.4 4.4 71 994.7 12.1 SW 22.8 0.0 0.1
01:17 9.6 5.0 73 994.3 15.2 W 21.3 0.0 0.1
01:17 9.4 4.4 71 994.7 13.0 S 22.8 0.0 0.1
01:18 9.6 5.0 73 994.5 17.4 W 21.3 0.0 0.1
01:18 9.4 4.4 71 994.6 13.0 W 22.8 0.0 0.1
01:19 9.6 5.0 73 994.3 15.2 S 21.3 0.0 0.1
01:19 9.3 4.3 71 994.8 15.2 SW 22.8 0.0 0.1
01:20 9.6 5.0 73 994.3 14.5 SW 21.3 0.0 0.1
01:20 9.3 4.3 71 994.5 19.0 W 22.8 0.0 0.1
01:21 9.6 5.0 73 994.6 13.0 SW 21.3 0.0 0.1
01:21 9.3 4.3 71 994.7 15.9 W 21.3 0.0 0.1
01:22 9.5 4.9 73 994.5 14.5 SW 21.3 0.0 0.1
01:22 9.3 4.3 71 994.8 16.8 SW 21.3 0.0 0.1
01:23 9.5 4.9 73 994.5 14.5 W 19.0 0.0 0.1
01:23 9.3 4.3 71 994.6 17.4 NNE 20.6 0.0 0.1
01:24 9.5 4.9 73 994.5 16.8 SW 19.0 0.0 0.1
01:24 9.3 4.3 71 994.6 15.2 SW 20.6 0.0 0.1
01:25 9.5 4.9 73 994.4 14.5 S 19.0 0.0 0.1
01:25 9.3 4.3 71 994.7 15.2 SW 20.6 0.0 0.1
01:26 9.5 4.9 73 994.2 17.4 SW 17.4 0.0 0.1
01:26 9.3 4.3 71 994.6 13.6 SW 20.6 0.0 0.1
01:27 9.5 4.9 73 994.5 13.0 SW 17.4 0.0 0.1
01:27 9.3 4.3 71 994.6 13.6 SW 20.6 0.0 0.1
01:28 9.5 4.9 73 994.5 17.4 W 17.4 0.0 0.1
01:28 9.3 4.3 71 994.9 15.9 SW 20.6 0.0 0.1
01:29 9.5 5.1 74 994.5 14.5 SW 17.4 0.0 0.1
01:29 9.3 4.3 71 994.7 19.0 SW 20.6 0.0 0.1
01:30 9.5 5.1 74 994.4 15.9 SW 17.4 0.0 0.1
01:30 9.3 4.3 71 994.7 15.2 SW 20.6 0.0 0.1
01:31 9.5 5.1 74 994.4 15.9 SW 17.4 0.0 0.1
01:31 9.3 4.3 71 994.7 14.5 SW 20.6 0.0 0.1
01:32 9.5 5.1 74 994.4 13.0 S 17.4 0.0 0.1
01:32 9.3 4.3 71 994.6 17.4 S 20.6 0.0 0.1
01:33 9.5 5.1 74 994.3 13.6 W 17.4 0.0 0.1
01:33 9.3 4.3 71 994.7 13.0 W 20.6 0.0 0.1
01:34 9.5 5.1 74 994.5 15.9 S 17.4 0.0 0.1
01:34 9.3 4.5 72 994.7 13.0 SW 20.6 0.0 0.1
01:35 9.5 5.1 74 994.3 15.9 SW 17.4 0.0 0.1
01:35 9.3 4.5 72 994.6 14.5 S 20.6 0.0 0.1
01:36 9.5 5.1 74 994.7 15.2 S 17.4 0.0 0.1
01:36 9.3 4.5 72 994.6 15.2 W 20.6 0.0 0.1
01:37 9.5 5.1 74 994.5 11.4 S 17.4 0.0 0.1
01:37 9.3 4.5 72 994.5 15.2 SW 20.6 0.0 0.1
01:38 9.5 5.1 74 994.5 12.1 SW 17.4 0.0 0.1
01:38 9.3 4.5 72 994.7 13.0 SW 20.6 0.0 0.1
01:39 9.5 5.1 74 994.6 16.8 SW 16.8 0.0 0.1
01:39 9.3 4.5 72 994.6 15.9 SW 20.6 0.0 0.1
01:40 9.5 5.1 74 994.5 15.9 SW 16.8 0.0 0.1
01:40 9.3 4.5 72 994.6 13.6 SW 20.6 0.0 0.1
01:41 9.5 4.9 73 994.4 15.2 W 16.8 0.0 0.1
01:41 9.3 4.5 72 994.6 12.1 W 20.6 0.0 0.1
01:42 9.5 4.9 73 994.5 14.5 SW 16.8 0.0 0.1
01:42 9.3 4.5 72 994.7 11.4 SW 20.6 0.0 0.1
01:43 9.5 4.9 73 994.5 15.9 SW 16.8 0.0 0.1
01:43 9.3 4.5 72 994.5 11.4 SW 20.6 0.0 0.1
01:44 9.5 4.9 73 994.5 13.6 SW 16.8 0.0 0.1
01:44 9.3 4.5 72 994.7 11.4 SW 20.6 0.0 0.1
01:45 9.5 4.9 73 994.5 16.8 SW 16.8 0.0 0.1
01:45 9.2 4.4 72 994.8 15.2 SW 20.6 0.0 0.1
01:46 9.5 4.9 73 994.6 15.2 SW 16.8 0.0 0.1
01:46 9.2 4.4 72 994.7 14.5 S 20.6 0.0 0.1
01:47 9.5 4.9 73 994.4 20.6 W 20.6 0.0 0.1
01:47 9.2 4.4 72 994.7 14.5 S 20.6 0.0 0.1
01:48 9.5 4.7 72 994.6 20.6 SW 20.6 0.0 0.1
01:48 9.2 4.4 72 994.6 9.8 SW 20.6 0.0 0.1
01:49 9.5 4.7 72 994.8 15.9 SW 20.6 0.0 0.1
01:49 9.2 4.4 72 994.9 12.1 W 20.6 0.0 0.1
01:50 9.5 4.7 72 994.6 17.4 SW 20.6 0.0 0.1
01:50 9.2 4.4 72 994.7 19.7 W 20.6 0.0 0.1
01:51 9.4 4.6 72 994.6 17.4 SW 20.6 0.0 0.1
01:51 9.2 4.4 72 994.5 20.6 SW 20.6 0.0 0.1
01:52 9.4 4.6 72 994.7 15.9 W 20.6 0.0 0.1
01:52 9.2 4.4 72 994.6 19.7 SW 20.6 0.0 0.1
01:53 9.4 4.4 71 994.6 14.5 SW 20.6 0.0 0.1
01:53 9.2 4.4 72 994.5 16.8 SW 20.6 0.0 0.1
01:54 9.4 4.4 71 994.4 15.9 SW 20.6 0.0 0.1
01:54 9.3 4.5 72 994.7 14.5 W 20.6 0.0 0.1
01:55 9.4 4.4 71 994.5 15.9 S 20.6 0.0 0.1
01:55 9.3 4.5 72 994.4 17.4 SW 20.6 0.0 0.1
01:56 9.4 4.4 71 994.5 19.7 S 20.6 0.0 0.1
01:56 9.3 4.5 72 994.4 17.4 SW 20.6 0.0 0.1
01:57 9.4 4.4 71 994.6 15.2 SW 20.6 0.0 0.1
01:57 9.3 4.5 72 994.5 15.2 S 20.6 0.0 0.1
01:58 9.3 4.3 71 994.6 18.3 W 19.7 0.0 0.1
01:58 9.3 4.5 72 994.6 15.2 SW 20.6 0.0 0.1
01:59 9.3 4.3 71 994.6 18.3 W 19.7 0.0 0.1
01:59 9.3 4.5 72 994.7 14.5 SW 20.6 0.0 0.1
02:00 9.3 4.5 72 994.7 14.5 SW 20.6 0.0 0.1
02:01 9.3 4.5 72 994.5 16.8 SW 20.6 0.0 0.1
02:02 9.3 4.5 72 994.6 16.8 SW 19.7 0.0 0.1
02:03 9.3 4.5 72 994.7 16.8 SW 19.7 0.0 0.1
02:04 9.3 4.5 72 994.6 16.8 SW 19.7 0.0 0.1
02:05 9.3 4.5 72 994.5 16.8 SW 19.7 0.0 0.1
02:06 9.4 4.6 72 994.5 18.3 S 19.7 0.0 0.1
02:07 9.4 4.6 72 994.5 11.4 SW 18.3 0.0 0.1
02:08 9.4 4.6 72 994.5 15.2 S 18.3 0.0 0.1
02:09 9.4 4.6 72 994.4 16.8 S 18.3 0.0 0.1
02:10 9.4 4.6 72 994.4 16.8 SW 18.3 0.0 0.1
02:11 9.5 4.7 72 994.3 16.8 SW 18.3 0.0 0.1
02:12 9.5 4.7 72 994.2 14.5 SW 18.3 0.0 0.1
02:13 9.5 4.7 72 994.2 13.0 S 18.3 0.0 0.1
02:14 9.5 4.7 72 994.3 13.6 W 18.3 0.0 0.1
02:15 9.5 4.9 73 994.1 14.5 SW 18.3 0.0 0.1
02:16 9.5 4.9 73 994.3 13.6 SW 18.3 0.0 0.1
02:17 9.6 5.0 73 994.0 17.4 SW 17.4 0.0 0.1
02:18 9.6 5.0 73 994.1 15.2 SW 17.4 0.0 0.1
02:19 9.6 5.0 73 993.7 15.2 SW 17.4 0.0 0.1
02:20 9.7 5.1 73 994.0 16.8 SW 17.4 0.0 0.1
02:22 9.8 5.2 73 994.1 18.3 SW 22.8 0.0 0.1
02:23 9.8 5.2 73 994.1 19.0 SW 22.8 0.0 0.1
02:24 9.9 5.3 73 993.8 19.0 SW 22.8 0.0 0.1
02:25 9.9 5.3 73 993.9 20.6 SW 22.8 0.0 0.1
02:26 9.9 5.3 73 994.0 15.9 SW 22.8 0.0 0.1
02:27 10.0 5.2 72 994.1 19.7 SW 22.8 0.0 0.1
02:28 10.0 5.2 72 994.1 19.7 SW 22.8 0.0 0.1
02:29 10.0 5.2 72 993.9 15.2 SW 22.8 0.0 0.1
02:30 10.0 5.2 72 993.9 15.2 W 22.8 0.0 0.1
02:31 10.0 5.2 72 993.9 16.8 SW 22.8 0.0 0.1
02:32 10.0 5.2 72 994.0 15.2 W 22.8 1.5 0.2
02:33 10.1 5.3 72 994.0 18.3 SW 20.6 3.0 0.3
02:34 10.0 5.2 72 993.9 20.6 SW 20.6 3.0 0.3
02:35 10.0 5.2 72 993.7 19.0 SW 20.6 3.0 0.3
02:36 10.0 5.2 72 993.9 19.0 W 20.6 3.0 0.3
02:37 9.9 5.3 73 993.9 14.5 W 20.6 1.5 0.3
02:38 9.9 5.3 73 993.7 18.3 W 20.6 0.0 0.3
02:39 9.8 5.2 73 993.8 17.4 SW 20.6 0.0 0.3
02:40 9.8 5.2 73 993.8 17.4 SW 20.6 0.0 0.3
02:41 9.8 5.2 73 993.9 19.0 W 20.6 0.0 0.3
02:42 9.8 5.2 73 993.7 16.8 SW 20.6 0.0 0.3
02:43 9.8 5.2 73 994.0 19.7 S 20.6 0.0 0.3
02:44 9.8 5.2 73 993.9 18.3 SW 20.6 0.0 0.3
02:45 9.8 5.0 72 993.8 14.5 SW 19.7 0.0 0.3
02:46 9.8 5.0 72 993.9 21.3 SW 21.3 0.0 0.3
02:47 9.8 5.0 72 993.7 18.3 W 21.3 0.0 0.3
02:48 9.8 5.0 72 993.7 15.9 SW 21.3 0.0 0.3
02:49 9.7 4.9 72 993.8 13.0 W 21.3 0.0 0.3
02:50 9.7 4.9 72 993.8 17.4 SW 21.3 0.0 0.3
02:51 9.7 4.9 72 993.7 17.4 SW 21.3 0.0 0.3
02:52 9.7 4.9 72 993.7 10.7 SW 21.3 0.0 0.3
02:53 9.7 5.1 73 993.8 10.7 SW 21.3 0.0 0.3
02:54 9.7 5.1 73 993.8 13.0 SW 21.3 0.0 0.3
02:55 9.7 5.1 73 993.7 15.2 SW 21.3 0.0 0.3
02:56 9.7 5.1 73 993.7 15.2 SW 21.3 0.0 0.3
02:57 9.7 5.1 73 993.6 13.6 W 17.4 0.0 0.3
02:58 9.7 5.1 73 993.5 15.2 S 17.4 0.0 0.3
02:59 9.6 5.0 73 993.3 15.2 S 17.4 0.0 0.3
03:00 9.6 5.0 73 993.5 13.6 W 17.4 0.0 0.3
03:01 9.6 5.0 73 993.7 23.5 SW 23.5 0.0 0.3
03:02 9.6 5.0 73 993.6 23.5 SW 23.5 0.0 0.3
03:03 9.6 5.0 73 993.5 23.5 SW 23.5 0.0 0.3
03:04 9.6 5.0 73 993.6 23.5 SW 23.5 0.0 0.3
03:05 9.6 5.0 73 993.5 23.5 SW 23.5 0.0 0.3
03:06 9.6 5.0 73 993.6 23.5 SW 23.5 0.0 0.3
03:07 9.6 5.0 73 993.4 23.5 SW 23.5 0.0 0.3
03:08 9.6 5.0 73 993.4 23.5 SW 23.5 0.0 0.3
03:09 9.6 4.8 72 993.5 13.0 W 23.5 0.0 0.3
03:10 9.6 4.8 72 993.6 10.7 W 23.5 0.0 0.3
03:11 9.6 4.8 72 993.4 13.0 SW 23.5 0.0 0.3
03:12 9.6 4.8 72 993.5 21.3 SW 23.5 0.0 0.3
03:13 9.6 4.8 72 993.7 19.0 W 23.5 0.0 0.3
03:14 9.6 4.8 72 993.6 17.4 SW 23.5 0.0 0.3
03:15 9.6 4.8 72 993.8 22.1 W 23.5 0.0 0.3
03:16 9.6 4.8 72 993.6 22.1 SW 23.5 0.0 0.3
03:17 9.6 4.8 72 993.6 18.3 SW 23.5 0.0 0.3
03:18 9.6 4.6 71 993.7 21.3 W 23.5 0.0 0.3
03:19 9.6 4.6 71 993.7 15.9 SW 22.1 0.0 0.3
03:20 9.6 4.6 71 993.6 16.8 SW 22.1 0.0 0.3
03:21 9.7 4.7 71 993.5 17.4 W 22.1 0.0 0.3
03:22 9.7 4.7 71 993.6 17.4 SW 22.1 0.0 0.3
03:23 9.7 4.7 71 993.6 17.4 SW 22.1 0.0 0.3
03:24 9.7 4.7 71 993.6 17.4 SW 22.1 0.0 0.3
03:25 9.7 4.7 71 993.5 13.0 W 22.1 0.0 0.3
03:26 9.7 4.7 71 993.6 14.5 WNW 21.3 0.0 0.3
03:27 9.7 4.7 71 993.3 14.5 SW 21.3 0.0 0.3
03:28 9.7 4.7 71 993.4 14.5 SW 21.3 0.0 0.3
03:29 9.7 4.7 71 993.8 14.5 SW 17.4 0.0 0.3
03:30 9.7 4.7 71 993.6 14.5 SW 17.4 0.0 0.3
03:31 9.7 4.7 71 993.5 15.2 SW 17.4 0.0 0.3
03:32 9.7 4.7 71 993.6 12.1 W 17.4 0.0 0.3
03:33 9.7 4.7 71 993.6 14.5 W 17.4 0.0 0.3
03:34 9.8 5.0 72 993.5 13.0 SW 16.8 0.0 0.3
03:35 9.8 5.0 72 993.5 13.0 SW 15.9 0.0 0.3
03:36 9.8 5.0 72 993.5 14.5 W 15.9 0.0 0.3
03:37 9.8 5.0 72 993.6 14.5 W 15.9 0.0 0.3
03:38 9.8 5.0 72 993.6 13.6 W 15.9 0.0 0.3
03:39 9.8 5.0 72 993.5 13.6 W 15.2 0.0 0.3
03:40 9.8 5.0 72 993.4 13.6 W 15.2 0.0 0.3
03:41 9.8 5.0 72 993.5 13.6 W 14.5 0.0 0.3
03:42 9.9 5.1 72 993.5 13.6 W 14.5 0.0 0.3
03:43 9.9 5.1 72 993.3 12.1 SW 14.5 0.0 0.3
03:44 9.9 5.1 72 993.8 13.6 W 14.5 0.0 0.3
03:45 9.9 5.3 73 993.5 17.4 SW 18.3 0.0 0.3
03:46 10.0 5.4 73 993.5 14.5 SW 18.3 0.0 0.3
03:47 10.0 5.4 73 993.4 14.5 S 18.3 0.0 0.3
03:48 10.0 5.4 73 993.6 13.0 SW 18.3 0.0 0.3
03:49 10.1 5.5 73 993.7 13.0 SW 18.3 0.0 0.3
03:50 10.1 5.5 73 993.6 13.6 W 18.3 0.0 0.3
03:51 10.1 5.5 73 993.5 15.9 SW 18.3 0.0 0.3
03:52 10.1 5.5 73 993.5 15.9 SW 18.3 0.0 0.3
03:53 10.1 5.5 73 993.7 15.9 SW 18.3 0.0 0.3
03:54 10.1 5.5 73 993.5 12.1 W 18.3 0.0 0.3
03:55 10.1 5.5 73 993.8 11.4 SW 17.4 0.0 0.3
03:56 10.1 5.5 73 993.4 13.0 SW 15.9 0.0 0.3
03:57 10.1 5.5 73 993.3 15.9 SW 15.9 0.0 0.3
03:58 10.1 5.5 73 993.6 15.2 SW 15.9 0.0 0.3
03:59 10.1 5.5 73 993.5 11.4 SW 15.9 0.0 0.3
04:00 10.0 5.4 73 993.6 13.6 S 15.9 0.0 0.3
04:01 10.0 5.4 73 993.4 15.2 W 15.9 0.0 0.3
04:02 10.0 5.4 73 993.6 19.0 W 19.0 0.0 0.3
04:03 10.0 5.4 73 993.5 14.5 SW 19.0 0.0 0.3
04:04 10.0 5.4 73 993.4 13.0 S 19.0 0.0 0.3
04:05 10.0 5.4 73 993.7 12.1 SW 19.0 0.0 0.3
04:06 10.1 5.5 73 993.6 15.2 W 19.0 0.0 0.3
04:07 10.1 5.5 73 993.6 13.6 W 19.0 0.0 0.3
04:08 10.1 5.5 73 993.4 13.0 SW 19.0 0.0 0.3
04:09 10.1 5.5 73 993.7 16.8 SW 19.0 0.0 0.3
04:10 10.1 5.5 73 993.5 15.2 SW 19.0 0.0 0.3
04:11 10.1 5.5 73 993.6 14.5 SW 19.0 0.0 0.3
04:12 10.2 5.6 73 993.4 13.6 SW 19.0 0.0 0.3
04:13 10.2 5.6 73 993.5 9.8 SW 16.8 0.0 0.3
04:14 10.2 5.6 73 993.6 16.8 SW 16.8 0.0 0.3
04:15 10.2 5.6 73 993.5 16.8 W 16.8 0.0 0.3
04:16 10.2 5.6 73 993.5 15.2 W 16.8 0.0 0.3
04:17 10.2 5.6 73 993.5 19.0 SW 19.0 0.0 0.3
04:18 10.2 5.6 73 993.6 14.5 S 19.0 0.0 0.3
04:19 10.2 5.6 73 993.5 19.0 SW 19.0 0.0 0.3
04:20 10.2 5.6 73 993.5 19.0 SW 19.0 0.0 0.3
04:21 10.2 5.6 73 993.5 15.9 SW 19.0 0.0 0.3
04:22 10.2 5.6 73 993.6 15.2 WSW 19.0 0.0 0.3
04:23 10.2 5.6 73 993.6 10.7 WNW 19.0 0.0 0.3
04:24 10.2 5.6 73 993.6 8.3 S 19.0 0.0 0.3
04:25 10.2 5.6 73 993.6 12.1 SW 19.0 0.0 0.3
04:26 10.2 5.6 73 993.5 14.5 SW 19.0 0.0 0.3
04:27 10.1 5.5 73 993.6 15.9 SW 19.0 0.0 0.3
04:28 10.1 5.5 73 993.5 12.1 W 19.0 0.0 0.3
04:29 10.1 5.5 73 993.3 14.5 SW 19.0 0.0 0.3
04:30 10.1 5.5 73 993.5 14.5 SW 19.0 0.0 0.3
04:31 10.1 5.5 73 993.6 15.9 SW 15.9 0.0 0.3
04:32 10.2 5.6 73 993.5 19.7 WSW 19.7 0.0 0.3
04:33 10.2 5.6 73 993.4 19.7 S 19.7 0.0 0.3
04:34 10.2 5.6 73 993.5 15.9 SW 19.7 0.0 0.3
04:35 10.2 5.6 73 993.5 15.9 SW 19.7 0.0 0.3
04:36 10.2 5.6 73 993.7 13.6 SW 19.7 0.0 0.3
04:37 10.2 5.6 73 993.6 16.8 SW 21.3 0.0 0.3
04:38 10.2 5.6 73 993.5 16.8 WSW 21.3 0.0 0.3
04:39 10.2 5.6 73 993.8 14.5 S 21.3 0.0 0.3
04:40 10.2 5.6 73 993.5 14.5 SW 21.3 0.0 0.3
04:41 10.1 5.5 73 993.6 15.2 SW 21.3 0.0 0.3
04:42 10.1 5.5 73 993.5 16.8 SW 21.3 0.0 0.3
04:43 10.1 5.5 73 993.6 16.8 W 21.3 0.0 0.3
04:44 10.1 5.5 73 993.4 13.6 SW 21.3 0.0 0.3
04:45 10.0 5.4 73 993.4 13.6 SW 21.3 0.0 0.3
04:46 10.0 5.4 73 993.5 13.6 S 21.3 0.0 0.3
04:47 10.0 5.4 73 993.6 13.6 W 16.8 0.0 0.3
04:48 10.0 5.4 73 993.7 16.8 SW 16.8 0.0 0.3
04:49 10.0 5.4 73 993.7 13.0 S 16.8 0.0 0.3
04:50 10.0 5.4 73 993.6 9.2 WNW 16.8 0.0 0.3
04:51 10.0 5.4 73 993.6 9.2 SW 16.8 0.0 0.3
04:52 10.0 5.4 73 993.6 12.1 W 16.8 0.0 0.3
04:53 10.0 5.4 73 993.5 12.1 SW 16.8 0.0 0.3
04:54 10.0 5.4 73 993.6 9.8 W 16.8 0.0 0.3
04:55 10.0 5.4 73 993.5 9.8 W 16.8 0.0 0.3
04:56 10.0 5.6 74 993.6 13.6 SW 16.8 0.0 0.3
04:57 10.0 5.6 74 993.8 15.2 W 16.8 0.0 0.3
04:58 10.0 5.6 74 993.6 15.2 WSW 16.8 0.0 0.3
04:59 10.0 5.6 74 993.5 15.2 SW 15.2 0.0 0.3
05:00 10.0 5.6 74 993.6 10.7 SW 15.2 0.0 0.3
05:01 10.0 5.6 74 993.6 10.7 SW 15.2 0.0 0.3
05:02 10.0 5.6 74 993.8 10.7 SW 15.2 0.0 0.3
05:03 10.0 5.6 74 993.8 10.7 SW 15.2 0.0 0.3
05:04 10.0 5.6 74 993.6 10.7 SW 15.2 0.0 0.3
05:05 10.0 5.6 74 993.8 10.7 SW 15.2 0.0 0.3
05:06 10.0 5.6 74 993.6 10.7 SW 15.2 0.0 0.3
05:07 10.1 5.9 75 993.4 13.6 SW 15.2 0.0 0.3
05:08 10.1 5.9 75 993.5 13.0 W 15.2 0.0 0.3
05:09 10.2 6.0 75 993.6 15.9 W 15.9 0.0 0.3
05:10 10.2 6.0 75 993.8 14.5 SW 15.9 0.0 0.3
05:11 10.2 5.8 74 993.5 12.1 SW 15.9 0.0 0.3
05:12 10.2 5.8 74 993.8 17.4 W 17.4 0.0 0.3
05:13 10.2 5.8 74 993.7 16.8 SW 17.4 0.0 0.3
05:14 10.2 5.8 74 993.7 21.3 SW 21.3 0.0 0.3
05:15 10.2 5.8 74 993.9 21.3 SW 21.3 0.0 0.3
05:16 10.2 5.8 74 993.8 21.3 SW 21.3 0.0 0.3
05:17 10.3 5.9 74 993.6 19.7 SW 21.3 0.0 0.3
05:18 10.3 5.9 74 993.7 19.7 SW 21.3 0.0 0.3
05:19 10.3 5.9 74 993.8 19.7 W 21.3 0.0 0.3
05:20 10.3 5.9 74 993.7 15.9 SW 21.3 0.0 0.3
05:21 10.2 5.6 73 993.8 17.4 SW 21.3 0.0 0.3
05:22 10.2 5.6 73 993.5 15.2 WSW 21.3 0.0 0.3
05:23 10.2 5.6 73 993.8 15.2 SW 21.3 0.0 0.3
05:24 10.2 5.4 72 993.6 17.4 SW 21.3 0.0 0.3
05:25 10.2 5.4 72 993.6 17.4 SW 21.3 0.0 0.3
05:26 10.1 5.1 71 993.4 19.0 SW 21.3 0.0 0.3
05:27 10.1 5.1 71 993.7 15.2 SW 19.7 0.0 0.3
05:28 10.1 5.1 71 993.5 15.2 SW 19.7 0.0 0.3
05:29 10.1 5.1 71 993.6 16.8 W 19.0 0.0 0.3
05:30 10.0 5.0 71 993.6 11.4 WSW 19.0 0.0 0.3
05:31 10.0 5.0 71 993.6 11.4 WSW 19.0 0.0 0.3
05:32 10.0 5.0 71 993.4 15.9 SW 19.0 0.0 0.3
05:33 10.0 5.0 71 993.6 11.4 SW 19.0 0.0 0.3
05:34 10.0 5.0 71 993.5 13.6 W 19.0 0.0 0.3
05:35 10.0 5.0 71 993.4 11.4 SW 19.0 0.0 0.3
05:36 9.9 4.9 71 993.7 15.9 W 19.0 0.0 0.3
05:37 9.9 4.9 71 993.6 14.5 SW 16.8 0.0 0.3
05:38 9.9 4.9 71 993.5 10.7 SW 16.8 0.0 0.3
05:39 9.9 4.9 71 993.6 10.7 SW 16.8 0.0 0.3
05:40 9.9 4.9 71 993.8 13.6 W 15.9 0.0 0.3
05:41 9.9 4.9 71 993.8 13.6 W 15.9 0.0 0.3
05:42 9.8 4.8 71 993.7 16.8 W 16.8 0.0 0.3
05:43 9.8 4.8 71 993.6 15.2 SW 16.8 0.0 0.3
05:44 9.8 4.8 71 993.7 12.1 SW 16.8 0.0 0.3
05:45 9.8 4.8 71 993.6 11.4 SW 16.8 0.0 0.3
05:46 9.8 4.8 71 993.6 13.6 SW 16.8 0.0 0.3
05:47 9.8 4.8 71 993.7 17.4 SW 17.4 0.0 0.3
05:48 9.8 4.8 71 993.5 13.0 SW 17.4 0.0 0.3
05:49 9.8 4.8 71 993.8 10.7 SW 17.4 0.0 0.3
05:50 9.8 4.8 71 993.6 11.4 SW 17.4 0.0 0.3
05:51 9.8 4.8 71 993.6 10.7 S 17.4 0.0 0.3
05:52 9.8 4.8 71 993.7 15.9 W 17.4 0.0 0.3
05:53 9.8 4.8 71 993.8 15.9 SW 17.4 0.0 0.3
05:54 9.8 4.8 71 993.6 14.5 W 17.4 0.0 0.3
05:55 9.8 4.8 71 993.6 13.6 SW 17.4 0.0 0.3
05:56 9.8 4.8 71 993.6 13.0 WSW 17.4 0.0 0.3
05:57 9.8 4.8 71 993.7 14.5 W 15.9 0.0 0.3
05:58 9.9 4.9 71 993.5 15.9 SW 15.9 0.0 0.3
05:59 9.9 4.9 71 993.5 15.9 SW 15.9 0.0 0.3
06:00 9.9 4.9 71 993.7 14.5 SW 15.9 0.0 0.3
06:01 9.9 4.9 71 993.6 13.0 SW 15.9 0.0 0.3
06:02 9.9 4.9 71 993.6 13.0 SW 15.9 0.0 0.3
06:03 9.9 4.9 71 993.6 13.0 SW 15.9 0.0 0.3
06:04 10.0 5.0 71 993.6 17.4 SW 17.4 0.0 0.3
06:05 10.0 5.0 71 993.7 13.0 W 17.4 0.0 0.3
06:06 10.0 5.0 71 993.5 10.7 W 17.4 0.0 0.3
06:07 10.0 5.0 71 993.8 17.4 SW 17.4 0.0 0.3
06:08 10.0 5.0 71 993.7 19.0 SW 19.0 0.0 0.3
06:09 10.0 5.0 71 993.5 16.8 W 19.0 0.0 0.3
06:10 10.0 5.0 71 993.6 13.0 W 19.0 0.0 0.3
06:11 10.0 5.0 71 993.9 15.2 SW 19.0 0.0 0.3
06:12 10.0 5.0 71 993.5 15.2 W 19.0 0.0 0.3
06:13 10.0 5.0 71 993.8 11.4 SW 19.0 0.0 0.3
06:14 10.0 5.0 71 993.7 15.2 W 19.0 0.0 0.3
06:15 10.0 5.0 71 993.8 14.5 SW 19.0 0.0 0.3
06:16 10.0 5.0 71 993.6 13.6 SW 19.0 0.0 0.3
06:17 10.1 5.3 72 993.6 16.8 W 19.0 0.0 0.3
06:18 10.1 5.3 72 993.6 14.5 SW 19.0 0.0 0.3
06:19 10.1 5.3 72 993.6 14.5 SW 18.3 0.0 0.3
06:20 10.1 5.3 72 993.5 14.5 W 19.0 0.0 0.3
06:21 10.1 5.3 72 993.6 15.9 SW 19.0 0.0 0.3
06:22 10.1 5.3 72 993.7 15.2 W 19.0 0.0 0.3
06:23 10.1 5.3 72 993.8 14.5 SW 19.0 0.0 0.3
06:24 10.1 5.3 72 993.6 15.2 SW 19.0 0.0 0.3
06:25 10.1 5.3 72 993.6 11.4 SW 19.0 0.0 0.3
06:26 10.0 5.2 72 993.6 16.8 WSW 19.0 0.0 0.3
06:27 10.0 5.2 72 993.6 16.8 WSW 19.0 0.0 0.3
06:28 10.0 5.2 72 993.6 16.8 WSW 19.0 0.0 0.3
06:29 9.9 5.1 72 993.6 12.1 W 19.0 0.0 0.3
06:30 9.9 5.1 72 993.6 13.6 SW 16.8 0.0 0.3
06:31 9.8 4.8 71 993.4 13.6 SW 16.8 0.0 0.3
06:32 9.8 4.8 71 993.6 15.9 SW 16.8 0.0 0.3
06:33 9.8 4.8 71 994.0 16.8 SW 16.8 0.0 0.3
06:34 9.7 4.5 70 993.7 16.8 S 22.1 0.0 0.3
06:35 9.6 4.4 70 993.6 13.6 W 22.1 0.0 0.3
06:36 9.6 4.4 70 993.8 15.2 W 22.1 0.0 0.4
06:37 9.5 4.3 70 993.6 9.8 W 22.1 0.8 0.4
06:38 9.5 4.3 70 993.6 6.9 SW 22.1 0.8 0.4
06:39 9.4 4.2 70 993.5 9.2 SW 22.1 0.8 0.4
06:40 9.4 4.2 70 993.6 12.1 SW 22.1 0.8 0.4
06:41 9.4 4.2 70 993.6 10.7 SW 22.1 0.8 0.4
06:42 9.3 4.1 70 993.7 10.7 SW 22.1 0.0 0.4
06:43 9.3 4.1 70 993.7 9.8 S 22.1 0.0 0.4
06:44 9.3 4.1 70 993.7 9.2 SW 22.1 0.0 0.4
06:45 9.3 4.3 71 993.6 13.0 SW 15.2 0.0 0.4
06:46 9.3 4.3 71 993.7 13.0 NW 15.2 0.0 0.4
06:47 9.3 4.3 71 993.6 11.4 SW 13.0 0.0 0.4
06:48 9.3 4.3 71 993.8 12.1 SW 13.0 0.0 0.4
06:49 9.3 4.5 72 993.5 9.8 SW 13.0 0.0 0.4
06:50 9.3 4.5 72 993.6 10.7 SW 13.0 0.0 0.4
06:51 9.3 4.5 72 993.7 8.3 SW 13.0 0.0 0.4
06:52 9.3 4.5 72 993.5 8.3 SW 13.0 0.0 0.4
06:53 9.3 4.7 73 993.7 11.4 SW 13.0 0.0 0.4
06:54 9.3 4.7 73 993.6 11.4 W 13.0 0.0 0.4
06:55 9.3 4.7 73 993.6 11.4 W 13.0 0.0 0.4
06:56 9.3 4.7 73 993.7 11.4 S 13.0 0.0 0.4
06:57 9.4 5.0 74 993.8 13.0 SW 13.0 0.0 0.4
06:58 9.4 5.0 74 993.7 13.0 SW 13.0 0.0 0.4
06:59 9.4 5.0 74 994.0 10.7 SW 13.0 0.0 0.4
07:00 9.5 5.1 74 993.9 15.2 WSW 15.2 0.0 0.4
07:01 9.5 5.1 74 993.7 15.2 WSW 15.2 0.0 0.4
07:02 9.5 5.1 74 993.7 15.9 SW 15.9 0.0 0.4
07:03 9.5 5.1 74 993.8 15.9 SW 15.9 0.0 0.4
07:04 9.5 5.1 74 993.7 15.9 SSW 15.9 0.0 0.4
07:05 9.5 5.1 74 993.9 15.9 SSW 15.9 0.0 0.4
07:06 9.6 5.2 74 993.9 9.8 SW 15.9 0.0 0.4
07:07 9.6 5.2 74 993.9 14.5 NW 15.9 0.0 0.4
07:08 9.6 5.2 74 993.8 14.5 NW 15.9 0.0 0.4
07:09 9.6 5.2 74 993.7 11.4 W 15.9 0.0 0.4
07:10 9.6 5.2 74 993.7 12.1 SW 15.9 0.0 0.4
07:11 9.6 5.2 74 993.8 13.0 SW 15.9 0.0 0.4
07:12 9.6 5.2 74 994.0 13.0 SW 15.9 0.0 0.4
07:13 9.7 5.3 74 993.9 10.7 W 15.9 0.0 0.4
07:14 9.7 5.3 74 994.1 11.4 SW 15.9 0.0 0.4
07:15 9.7 5.3 74 993.6 13.0 SW 15.9 0.0 0.4
07:17 9.7 5.3 74 994.1 13.0 SW 14.5 0.0 0.4
07:18 9.7 5.3 74 993.8 13.6 SW 14.5 0.0 0.4
07:19 9.8 5.4 74 993.9 16.8 SW 16.8 0.0 0.4
07:20 9.8 5.4 74 993.9 14.5 SW 16.8 0.0 0.4
07:21 9.8 5.4 74 994.0 10.7 SW 16.8 0.0 0.4
07:22 9.9 5.5 74 994.1 12.1 SW 16.8 0.0 0.4
07:23 9.9 5.5 74 994.1 12.1 SW 16.8 0.0 0.4
07:24 10.0 5.6 74 994.1 11.4 SW 16.8 0.0 0.4
07:25 10.0 5.8 75 993.8 14.5 S 16.8 0.0 0.4
07:26 10.1 5.9 75 994.0 13.6 S 16.8 0.0 0.4
07:27 10.1 5.9 75 994.3 19.0 WNW 19.0 0.0 0.4
07:28 10.2 6.0 75 994.3 19.7 W 19.7 0.0 0.4
07:29 10.3 6.1 75 994.4 25.1 W 25.1 0.0 0.4
07:30 10.3 6.1 75 994.5 18.3 SW 25.1 0.0 0.4
07:31 10.3 6.1 75 994.3 15.2 SW 25.1 0.0 0.4
07:32 10.3 6.1 75 994.3 19.0 SW 25.1 0.0 0.4
07:33 10.2 5.8 74 994.4 16.8 W 25.1 0.0 0.4
07:34 10.2 5.8 74 994.3 17.4 WSW 25.1 0.0 0.4
07:35 10.1 5.7 74 994.2 15.9 SW 25.1 0.0 0.4
07:36 10.0 5.6 74 994.2 16.8 S 25.1 0.8 0.4
07:37 10.0 5.6 74 994.4 15.2 W 25.1 0.8 0.4
07:38 9.9 5.5 74 994.3 13.6 W 25.1 0.8 0.4
07:39 9.9 5.5 74 994.3 13.6 WSW 25.1 0.8 0.4
07:40 9.8 5.4 74 994.4 13.6 SW 24.4 0.8 0.4
07:41 9.7 5.3 74 994.5 11.4 W 19.0 0.0 0.4
07:42 9.7 5.3 74 994.4 16.8 SW 19.0 0.0 0.4
07:43 9.7 5.3 74 994.4 16.8 SW 17.4 0.0 0.4
07:44 9.6 5.2 74 994.2 15.2 W 17.4 0.0 0.4
07:45 9.5 5.1 74 994.3 13.0 SW 16.8 0.0 0.4
07:46 9.5 4.9 73 994.5 9.2 W 16.8 0.0 0.4
07:47 9.5 4.9 73 994.4 9.8 W 16.8 0.0 0.4
07:48 9.5 4.9 73 994.5 9.8 SW 16.8 0.0 0.4
07:49 9.4 4.8 73 994.5 9.8 SW 16.8 0.0 0.4
07:50 9.4 5.0 74 994.6 13.6 SW 16.8 0.0 0.4
07:51 9.4 5.0 74 994.6 13.6 SW 16.8 0.0 0.4
07:52 9.4 5.0 74 994.3 13.6 SW 16.8 0.0 0.4
07:53 9.4 5.0 74 994.5 11.4 W 15.2 0.0 0.4
07:54 9.4 5.0 74 994.5 11.4 W 15.2 0.0 0.4
07:55 9.4 5.0 74 994.5 13.0 W 13.6 0.0 0.4
07:56 9.4 5.0 74 994.5 12.1 SW 13.6 0.0 0.4
07:57 9.4 5.2 75 994.2 9.8 SW 13.6 0.0 0.4
07:58 9.4 5.2 75 994.5 9.8 SW 13.6 0.0 0.4
07:59 9.4 5.2 75 994.5 11.4 SW 13.6 0.0 0.4
08:00 9.4 5.2 75 994.4 10.7 SW 13.6 0.0 0.5
08:01 9.4 5.2 75 994.3 10.7 SW 13.6 0.8 0.5
08:02 9.5 5.5 76 994.2 13.0 SW 13.6 0.8 0.5
08:03 9.5 5.5 76 994.3 10.7 SW 13.0 0.8 0.5
08:04 9.5 5.5 76 994.3 10.7 SW 13.0 0.8 0.5
08:05 9.5 5.5 76 994.2 11.4 W 13.0 0.8 0.5
08:06 9.5 5.5 76 994.3 11.4 SW 13.0 0.0 0.5
08:07 9.5 5.7 77 994.4 9.8 S 13.0 0.0 0.5
08:08 9.5 5.7 77 994.5 7.6 WSW 13.0 0.0 0.5
08:09 9.5 5.7 77 994.3 10.7 SW 13.0 0.0 0.5
08:10 9.5 5.7 77 994.4 9.8 SW 13.0 0.0 0.5
08:11 9.5 5.7 77 994.4 9.2 SW 13.0 0.0 0.5
08:12 9.5 5.7 77 994.4 11.4 SW 13.0 0.0 0.5
08:13 9.5 5.7 77 994.2 11.4 W 11.4 0.0 0.5
08:14 9.5 5.7 77 994.2 8.3 SW 11.4 0.0 0.5
08:15 9.5 5.7 77 994.2 10.7 SW 11.4 0.0 0.5
08:16 9.5 5.9 78 994.4 9.8 SW 11.4 0.0 0.5
08:17 9.5 5.9 78 994.2 10.7 SW 11.4 0.0 0.5
08:18 9.5 5.9 78 994.3 9.8 SW 11.4 0.0 0.5
08:19 9.5 5.9 78 994.3 9.8 SW 11.4 0.0 0.5
08:20 9.5 5.9 78 994.4 9.8 W 11.4 0.0 0.5
08:21 9.5 5.9 78 994.1 11.4 W 11.4 0.0 0.5
08:22 9.5 5.9 78 994.4 13.6 SW 13.6 0.0 0.5
08:23 9.5 5.9 78 994.3 13.0 SW 13.6 0.0 0.5
08:24 9.5 5.9 78 994.3 15.2 SW 15.2 0.0 0.5
08:25 9.6 6.0 78 994.2 13.0 SW 15.2 0.0 0.5
08:26 9.6 6.0 78 994.3 10.7 SW 15.2 0.0 0.5
08:27 9.6 5.8 77 994.2 11.4 SW 15.2 0.0 0.5
08:28 9.6 5.8 77 994.1 13.0 SW 15.2 0.0 0.5
08:29 9.6 5.8 77 994.3 13.6 SW 15.2 0.0 0.5
08:30 9.6 5.8 77 994.2 13.6 SW 15.2 0.0 0.5
08:31 9.7 5.9 77 994.2 9.8 SW 15.2 0.0 0.5
08:32 9.7 5.9 77 994.3 9.8 SW 15.2 0.0 0.5
08:33 9.7 5.9 77 994.2 12.1 W 15.2 0.0 0.5
08:34 9.7 5.9 77 994.3 12.1 SW 13.6 0.0 0.5
08:35 9.7 5.7 76 994.2 12.1 SW 13.6 0.0 0.5
08:36 9.7 5.7 76 994.0 13.0 W 13.6 0.0 0.5
08:37 9.7 5.7 76 994.3 14.5 W 14.5 0.0 0.5
08:38 9.7 5.7 76 994.1 15.9 W 15.9 0.0 0.5
08:39 9.7 5.7 76 994.3 19.0 SW 19.0 0.0 0.5
08:40 9.7 5.7 76 994.4 19.0 SW 19.0 0.0 0.5
08:41 9.7 5.7 76 994.3 15.9 SW 19.0 0.0 0.5
08:42 9.8 5.6 75 994.2 11.4 SW 19.0 0.0 0.5
08:43 9.8 5.6 75 994.2 10.7 SW 19.0 0.0 0.5
08:44 9.8 5.6 75 994.2 13.0 SW 19.0 0.0 0.5
08:45 9.8 5.6 75 994.2 10.7 W 19.0 0.0 0.5
08:46 9.8 5.6 75 994.2 9.2 SW 19.0 0.0 0.5
08:47 9.8 5.6 75 994.2 9.2 SW 19.0 0.0 0.5
08:48 9.8 5.6 75 994.2 9.8 SW 19.0 0.0 0.5
08:49 9.8 5.6 75 994.2 13.6 SW 19.0 0.0 0.5
08:50 9.8 5.6 75 994.4 13.6 S 15.9 0.0 0.5
08:51 9.9 5.7 75 994.0 14.5 SW 15.9 0.0 0.5
08:52 9.9 5.7 75 994.3 13.6 SW 15.9 0.0 0.5
08:53 9.9 5.9 76 994.4 12.1 W 14.5 0.0 0.5
08:54 9.9 5.9 76 994.1 10.7 SW 14.5 0.0 0.5
08:55 9.9 5.9 76 994.3 13.6 SW 14.5 0.0 0.5
08:56 10.0 6.0 76 994.1 14.5 S 14.5 0.0 0.5
08:57 10.0 6.0 76 993.9 14.5 W 14.5 0.0 0.5
08:58 10.0 6.0 76 993.9 11.4 SW 16.8 0.0 0.5
08:59 10.0 6.0 76 994.3 13.0 SSW 16.8 0.0 0.5
09:00 10.0 6.0 76 994.3 13.0 SW 16.8 0.0 0.5
09:01 10.0 6.0 76 994.2 13.0 SW 16.8 0.0 0.5
09:02 10.0 6.0 76 994.2 13.0 SW 16.8 0.0 0.5
09:03 10.0 6.0 76 994.1 15.2 SW 16.8 0.0 0.5
09:04 10.0 6.0 76 994.2 15.2 W 16.8 0.0 0.5
09:05 10.0 6.0 76 994.2 13.6 SW 16.8 0.0 0.5
09:06 10.0 6.0 76 994.2 13.6 SW 16.8 0.0 0.5
09:07 10.0 6.0 76 994.0 13.6 WNW 16.8 0.0 0.5
09:08 10.0 6.0 76 994.1 13.6 WNW 16.8 0.0 0.5
09:09 10.0 6.0 76 994.1 14.5 SW 15.2 0.0 0.5
09:10 10.0 6.0 76 994.1 16.8 SW 16.8 0.0 0.5
09:11 10.0 5.8 75 994.2 15.9 SW 16.8 0.0 0.5
09:13 9.9 5.7 75 994.2 15.9 SW 18.3 0.0 0.5
09:14 9.9 5.7 75 994.2 9.2 S 18.3 0.0 0.5
09:15 9.9 5.7 75 993.9 12.1 SW 18.3 0.0 0.5
09:16 9.9 5.7 75 994.2 12.1 S 18.3 0.0 0.5
09:17 9.9 5.5 74 994.2 10.7 SW 18.3 0.0 0.5
09:18 9.9 5.5 74 994.3 15.2 S 18.3 0.0 0.5
09:19 9.9 5.5 74 994.3 15.2 S 18.3 0.0 0.5
09:20 9.8 5.4 74 994.0 15.2 SW 18.3 0.0 0.5
09:21 9.8 5.4 74 994.0 15.9 S 18.3 0.0 0.5
09:22 9.8 5.4 74 994.1 14.5 S 18.3 0.0 0.5
09:23 9.8 5.4 74 993.8 14.5 SW 15.9 0.0 0.5
09:24 9.8 5.4 74 993.9 11.4 SW 15.9 0.0 0.5
09:25 9.9 5.5 74 994.1 9.2 SW 15.9 0.0 0.5
09:26 9.9 5.5 74 994.1 12.1 SW 15.9 0.0 0.5
09:27 9.9 5.5 74 994.0 11.4 SW 15.9 0.0 0.5
09:28 9.9 5.5 74 994.2 13.0 SW 15.9 0.0 0.5
09:29 9.9 5.5 74 994.0 13.0 SW 15.9 0.0 0.5
09:30 9.9 5.5 74 994.0 14.5 W 15.9 0.0 0.5
09:31 9.9 5.5 74 994.1 13.0 SW 14.5 0.0 0.5
09:32 9.9 5.5 74 994.0 13.6 WSW 14.5 0.0 0.5
09:33 9.9 5.5 74 994.0 15.2 SW 15.2 0.0 0.5
09:34 9.9 5.5 74 994.3 13.0 SW 15.2 0.0 0.5
09:35 10.0 5.6 74 994.1 13.0 SW 15.2 0.0 0.5
09:36 10.0 5.6 74 994.1 13.0 SW 15.2 0.0 0.5
09:37 10.0 5.6 74 994.1 12.1 W 15.2 0.0 0.5
09:38 10.1 5.7 74 994.2 13.0 SW 15.2 0.0 0.5
09:39 10.2 5.8 74 994.2 9.8 SW 15.2 0.0 0.5
09:40 10.2 5.8 74 994.1 12.1 SW 15.2 0.0 0.5
09:41 10.3 5.9 74 994.2 9.8 SW 15.2 0.0 0.5
09:42 10.5 6.1 74 994.2 11.4 SW 15.2 0.0 0.5
09:43 10.5 6.1 74 994.2 13.0 W 13.0 0.0 0.5
09:44 10.6 6.2 74 994.2 9.8 SW 13.0 0.0 0.5
09:45 10.7 6.3 74 994.2 17.4 W 17.4 0.0 0.5
09:46 10.8 6.2 73 994.4 14.5 SW 17.4 0.0 0.5
09:47 10.8 6.2 73 994.3 14.5 W 17.4 0.0 0.5
09:48 10.8 6.2 73 994.3 14.5 W 17.4 0.0 0.5
09:49 10.9 6.3 73 994.3 14.5 SW 17.4 0.0 0.5
09:50 11.0 6.3 73 994.4 15.2 SSW 17.4 0.0 0.5
09:51 11.1 6.4 73 994.3 15.2 SW 17.4 0.0 0.5
09:52 11.1 6.4 73 994.4 15.9 SW 17.4 0.0 0.5
09:53 11.2 6.3 72 994.3 19.0 SW 19.0 0.0 0.5
09:54 11.3 6.4 72 994.5 19.0 W 19.0 0.0 0.5
09:55 11.4 6.5 72 994.0 15.9 SW 19.0 0.0 0.5
09:56 11.5 6.6 72 994.5 15.9 SW 19.0 0.0 0.5
09:57 11.5 6.6 72 994.4 15.9 SW 19.0 0.0 0.5
09:58 11.6 6.7 72 994.4 14.5 SW 19.0 0.0 0.5
09:59 11.7 6.8 72 994.2 13.6 S 19.0 0.0 0.5
10:00 11.7 6.8 72 994.2 16.8 SW 19.0 0.0 0.5
10:01 11.7 6.8 72 994.3 16.8 SW 19.0 0.0 0.5
10:02 11.7 6.8 72 994.4 16.8 SW 19.0 0.0 0.5
10:03 11.7 6.8 72 994.3 16.8 SW 19.0 0.0 0.5
10:04 11.7 6.8 72 994.3 16.8 SW 19.0 0.0 0.5
10:05 11.7 6.8 72 994.3 16.8 SW 16.8 0.0 0.5
10:06 12.1 7.2 72 994.4 18.3 W 18.3 0.0 0.5
10:07 12.1 7.2 72 994.3 17.4 SW 18.3 0.0 0.5
10:08 12.2 7.1 71 994.4 20.6 W 20.6 0.0 0.5
10:09 12.2 6.9 70 994.5 14.5 SW 20.6 0.0 0.5
10:10 12.2 6.9 70 994.3 15.9 S 20.6 0.0 0.5
10:11 12.2 6.9 70 994.5 16.8 SW 20.6 0.0 0.5
10:12 12.2 7.1 71 994.5 16.8 SW 20.6 0.0 0.5
10:13 12.2 7.1 71 994.4 16.8 SW 20.6 0.0 0.5
10:14 12.3 7.2 71 994.7 15.2 SW 20.6 0.0 0.5
10:15 12.3 7.2 71 994.5 15.9 SW 20.6 0.0 0.5
10:16 12.3 7.2 71 994.5 15.9 SW 20.6 0.0 0.5
10:17 12.2 6.9 70 994.8 19.0 SW 20.6 0.0 0.5
10:18 12.2 6.9 70 994.5 19.0 SW 20.6 0.0 0.5
10:19 12.1 6.8 70 994.6 17.4 S 19.0 0.0 0.5
10:20 12.0 6.7 70 994.5 18.3 W 19.0 0.0 0.5
10:21 11.9 6.6 70 994.7 17.4 SW 19.0 0.0 0.5
10:22 11.8 6.5 70 994.4 19.0 W 19.0 0.0 0.5
10:23 11.7 6.4 70 994.7 17.4 S 19.0 0.0 0.5
10:24 11.7 6.4 70 994.7 19.7 SW 19.7 0.0 0.5
10:25 11.7 6.4 70 994.6 19.7 SW 19.7 0.0 0.5
10:26 11.5 6.2 70 994.6 10.7 SW 19.7 0.0 0.5
10:27 11.4 6.1 70 994.8 14.5 SSW 19.7 0.0 0.5
10:28 11.4 6.1 70 994.6 17.4 SW 19.7 0.0 0.5
10:29 11.3 6.0 70 994.7 17.4 SW 19.7 0.0 0.5
10:30 11.2 5.9 70 994.7 15.9 S 19.7 0.8 0.6
10:31 11.2 5.9 70 994.5 15.9 W 19.7 0.8 0.6
10:32 11.2 5.9 70 994.8 12.1 SW 19.7 0.8 0.6
10:33 11.0 5.9 71 994.7 15.9 W 19.7 0.8 0.6
10:34 11.0 5.9 71 994.6 17.4 W 19.7 0.8 0.6
10:35 10.9 5.9 71 994.8 16.8 S 19.7 0.0 0.6
10:36 10.9 5.9 71 994.6 16.8 SW 17.4 0.0 0.6
10:37 10.8 5.8 71 994.6 18.3 SW 18.3 0.0 0.6
10:38 10.8 5.8 71 994.8 15.9 SW 18.3 0.0 0.6
10:39 10.7 5.7 71 994.7 15.2 SW 18.3 0.0 0.6
10:40 10.6 5.6 71 994.7 15.9 SW 18.3 0.0 0.6
10:41 10.6 5.6 71 994.9 15.9 SW 18.3 0.8 0.6
10:42 10.5 5.7 72 994.7 19.7 S 19.7 1.5 0.7
10:43 10.5 5.7 72 994.5 17.4 SW 19.7 1.5 0.7
10:44 10.5 5.7 72 994.5 17.4 SW 19.7 1.5 0.7
10:45 10.4 5.6 72 994.9 12.1 SW 19.7 3.0 0.8
10:46 10.3 5.5 72 994.7 18.3 SW 19.7 3.0 0.9
10:47 10.3 5.5 72 994.5 14.5 S 19.7 3.0 0.9
10:48 10.2 5.4 72 994.7 13.0 SW 19.7 3.0 0.9
10:49 10.1 5.3 72 994.6 9.8 SW 19.7 3.0 0.9
10:50 10.1 5.3 72 994.3 8.3 S 19.7 1.5 0.9
10:51 10.0 5.2 72 994.5 15.2 SW 19.7 0.8 0.9
10:52 9.9 5.1 72 994.5 10.7 SW 19.7 0.8 1.0
10:53 9.8 5.0 72 994.5 10.7 S 18.3 0.8 1.0
10:54 9.8 5.0 72 994.3 13.6 S 18.3 0.8 1.0
10:55 9.7 4.9 72 994.4 9.8 S 18.3 0.8 1.0
10:56 9.7 4.9 72 994.3 8.3 SW 15.2 0.8 1.0
10:57 9.7 5.1 73 994.3 9.2 SW 15.2 0.0 1.0
10:58 9.7 5.1 73 994.1 9.2 SW 15.2 0.0 1.0
10:59 9.7 5.1 73 994.3 8.3 S 15.2 0.0 1.0
11:00 9.6 5.0 73 994.2 6.0 SW 15.2 0.0 1.0
11:01 9.6 5.0 73 994.3 9.2 S 13.6 0.0 1.0
11:02 9.6 5.0 73 994.4 9.2 S 13.6 0.0 1.0
11:03 9.6 5.0 73 994.4 9.8 W 13.6 0.0 1.0
11:04 9.5 4.9 73 994.3 6.9 W 13.6 0.0 1.0
11:05 9.5 5.1 74 994.4 11.4 S 11.4 0.0 1.0
11:07 9.5 5.1 74 994.5 9.2 SW 11.4 0.0 1.0
11:08 9.5 5.1 74 994.3 10.7 S 11.4 0.0 1.0
11:09 9.5 5.1 74 994.5 15.9 SW 15.9 0.0 1.0
11:10 9.5 5.1 74 994.3 9.8 SW 15.9 0.0 1.0
11:11 9.5 5.1 74 994.5 11.4 SW 15.9 0.0 1.0
11:13 9.5 5.1 74 994.3 9.8 SW 15.9 0.0 1.0
11:14 9.5 5.1 74 994.3 9.2 SW 15.9 0.0 1.0
11:15 9.5 5.1 74 994.3 9.2 SW 15.9 0.0 1.0
11:16 9.5 5.3 75 994.3 10.7 SW 15.9 0.0 1.0
11:17 9.6 5.4 75 994.4 6.9 SW 15.9 0.0 1.0
11:19 9.7 5.5 75 994.3 9.8 SW 11.4 0.0 1.0
11:20 9.7 5.5 75 994.5 9.2 W 11.4 0.0 1.0
11:21 9.7 5.5 75 994.4 13.0 SW 13.0 0.0 1.0
11:22 9.8 5.8 76 994.5 14.5 SW 14.5 0.0 1.0
11:23 9.8 5.8 76 994.3 14.5 SW 14.5 0.0 1.0
11:24 9.8 5.8 76 994.3 10.7 S 14.5 0.0 1.0
11:25 9.8 5.8 76 994.4 13.0 SW 14.5 0.0 1.0
11:26 9.9 5.9 76 994.3 13.6 SW 14.5 0.0 1.0
11:27 9.9 5.9 76 994.5 15.2 SW 15.2 0.0 1.0
11:28 9.9 5.9 76 994.2 15.2 SW 15.2 0.0 1.0
11:29 9.9 5.9 76 994.2 13.0 SW 15.2 0.0 1.0
11:30 10.0 6.0 76 994.3 11.4 S 15.2 0.0 1.0
11:31 10.0 6.2 77 994.3 9.8 S 15.2 0.0 1.0
11:32 10.0 6.2 77 994.1 11.4 SW 15.2 0.0 1.0
11:33 10.0 6.2 77 994.2 9.2 SW 15.2 0.0 1.0
11:34 10.1 6.3 77 994.3 10.7 S 15.2 0.0 1.0
11:35 10.1 6.3 77 994.2 11.4 SW 15.2 0.0 1.0
11:36 10.2 6.4 77 994.3 8.3 S 15.2 0.0 1.0
11:37 10.2 6.5 78 994.1 13.0 SW 15.2 0.0 1.0
11:38 10.2 6.5 78 994.0 12.1 S 15.2 0.0 1.0
11:39 10.2 6.5 78 994.0 12.1 S 13.0 0.0 1.0
11:40 10.2 6.5 78 994.0 15.9 SW 15.9 0.0 1.0
11:41 10.3 6.6 78 994.3 12.1 S 15.9 0.0 1.0
11:42 10.3 6.6 78 993.9 11.4 S 15.9 0.0 1.0
11:43 10.3 6.8 79 994.0 12.1 SW 15.9 0.0 1.0
11:44 10.4 6.9 79 994.2 13.6 SW 15.9 0.0 1.0
11:45 10.5 7.0 79 994.2 13.0 W 15.9 0.0 1.0
11:46 10.6 7.1 79 994.0 15.2 S 15.9 0.0 1.0
11:47 10.6 7.1 79 994.1 15.9 W 15.9 0.0 1.0
11:48 10.6 7.1 79 994.0 19.7 S 19.7 0.0 1.0
11:49 10.7 7.2 79 994.2 15.2 S 19.7 0.0 1.0
11:50 10.7 7.0 78 994.3 13.6 W 19.7 0.0 1.0
11:51 10.8 7.1 78 994.3 15.2 SW 19.7 0.0 1.0
11:52 10.8 7.1 78 994.2 13.0 SW 19.7 0.0 1.0
11:53 10.9 7.2 78 994.3 17.4 SW 19.7 0.0 1.0
11:54 10.9 7.2 78 994.2 16.8 S 19.7 0.0 1.0
11:55 10.9 7.2 78 994.1 16.8 S 19.7 0.0 1.0
11:56 11.0 7.3 78 994.1 11.4 SW 19.7 0.0 1.0
11:57 11.2 7.5 78 994.3 22.8 S 22.8 0.0 1.0
11:58 11.3 7.6 78 994.2 15.2 SW 22.8 0.0 1.0
11:59 11.4 7.7 78 994.4 15.2 SW 22.8 0.0 1.0
12:00 11.5 7.8 78 994.4 14.5 SW 22.8 0.0 1.0
12:01 11.6 8.1 79 994.0 13.6 S 22.8 0.0 1.0
12:02 11.9 8.4 79 994.1 19.0 SW 22.8 0.0 1.0
12:03 11.9 8.4 79 994.2 19.0 SW 22.8 0.0 1.0
12:04 12.0 8.3 78 994.2 14.5 W 22.8 0.0 1.0
12:05 12.0 8.3 78 994.2 16.8 S 22.8 0.8 1.1
12:06 12.0 8.1 77 994.3 19.0 SW 22.8 0.8 1.1
12:07 12.0 8.1 77 994.3 19.0 SW 22.8 0.8 1.1
12:08 11.9 7.8 76 994.2 16.8 SW 19.0 0.8 1.1
12:09 11.9 7.8 76 994.4 18.3 S 19.0 0.8 1.1
12:10 11.9 7.8 76 994.1 18.3 W 19.0 0.0 1.1
12:11 12.0 7.7 75 994.5 16.8 SW 19.0 0.0 1.1
12:12 12.0 7.9 76 994.3 15.9 S 19.0 0.0 1.1
12:13 12.1 8.0 76 994.2 15.2 WSW 19.0 0.0 1.1
12:14 12.1 8.0 76 994.3 15.2 NW 19.0 0.0 1.1
12:15 12.1 7.8 75 994.2 14.5 SW 19.0 0.0 1.1
12:16 12.1 7.8 75 994.3 14.5 W 19.0 0.0 1.1
12:17 12.1 7.8 75 994.1 15.2 SW 18.3 0.0 1.1
12:18 12.0 7.7 75 994.2 13.6 SW 18.3 0.0 1.1
12:19 12.0 7.7 75 994.1 13.6 SW 18.3 0.0 1.1
12:20 12.0 7.7 75 994.2 16.8 SW 16.8 0.0 1.1
12:21 12.1 7.8 75 994.3 18.3 W 18.3 0.0 1.1
12:22 12.1 7.8 75 994.2 15.9 SW 18.3 0.0 1.1
12:23 12.1 7.8 75 994.2 15.9 SW 18.3 0.0 1.1
12:24 12.1 7.8 75 994.0 15.9 S 18.3 0.0 1.1
12:25 12.1 7.6 74 994.2 13.6 W 19.0 0.0 1.1
12:26 12.1 7.6 74 994.3 16.8 SW 19.0 0.0 1.1
12:27 12.1 7.6 74 994.3 17.4 W 19.0 0.0 1.1
12:28 12.1 7.6 74 994.0 19.7 SW 19.7 0.0 1.1
12:29 12.1 7.6 74 994.1 18.3 S 19.7 0.0 1.1
12:30 12.1 7.6 74 994.1 20.6 SW 20.6 0.0 1.1
12:31 12.1 7.6 74 993.9 19.0 SW 20.6 0.0 1.1
12:32 12.1 7.6 74 994.0 17.4 S 20.6 0.0 1.1
12:33 12.1 7.6 74 994.1 17.4 SW 20.6 0.0 1.1
12:34 12.1 7.6 74 994.0 15.9 W 20.6 0.0 1.1
12:35 12.1 7.6 74 994.0 15.9 W 20.6 0.0 1.1
12:36 12.1 7.6 74 994.2 17.4 SW 20.6 0.0 1.1
12:37 12.1 7.6 74 994.1 15.2 S 20.6 0.0 1.1
12:38 12.1 7.6 74 994.1 15.9 SW 20.6 0.0 1.1
12:39 12.0 7.5 74 994.2 15.9 SW 20.6 0.0 1.1
12:40 12.0 7.5 74 994.2 15.9 S 20.6 0.0 1.1
12:41 11.9 7.2 73 994.0 15.9 SW 19.0 0.0 1.1
12:42 11.9 7.2 73 994.2 20.6 SW 20.6 0.0 1.1
12:43 11.8 7.1 73 994.1 17.4 SW 20.6 0.0 1.1
12:44 11.8 7.1 73 994.1 17.4 SW 20.6 0.0 1.1
12:45 11.7 7.0 73 994.1 15.2 SW 20.6 0.0 1.1
12:46 11.6 6.9 73 994.2 22.1 SW 22.1 0.0 1.1
12:47 11.6 6.7 72 994.1 15.2 WSW 22.1 0.0 1.1
12:48 11.5 6.6 72 994.1 14.5 S 22.1 0.0 1.1
12:49 11.5 6.6 72 994.1 13.6 W 22.1 0.0 1.1
12:50 11.5 6.6 72 994.1 13.0 SW 22.1 0.0 1.1
12:51 11.5 6.6 72 994.4 11.4 SW 22.1 0.0 1.1
12:52 11.4 6.5 72 994.1 11.4 SW 22.1 0.0 1.1
12:53 11.4 6.5 72 994.1 13.0 W 22.1 0.0 1.1
12:54 11.4 6.5 72 994.1 13.0 S 22.1 0.0 1.1
12:55 11.3 6.4 72 994.3 14.5 S 22.1 0.0 1.1
12:56 11.3 6.4 72 994.3 14.5 S 22.1 0.0 1.1
12:57 11.3 6.4 72 994.3 14.5 SW 15.2 0.0 1.1
12:58 11.2 6.3 72 994.0 13.0 SW 14.5 0.0 1.1
12:59 11.2 6.3 72 994.1 13.0 SW 14.5 0.0 1.1
13:00 11.2 6.3 72 994.1 19.7 ESE 19.7 0.0 1.1
13:01 11.2 6.3 72 994.0 19.7 ESE 19.7 0.0 1.1
13:02 11.2 6.3 72 994.1 19.7 ESE 19.7 0.0 1.1
13:03 11.2 6.3 72 994.1 19.7 ESE 19.7 0.0 1.1
13:04 11.2 6.3 72 994.2 19.7 ESE 19.7 0.0 1.1
13:05 11.2 6.3 72 994.2 19.7 ESE 19.7 0.0 1.1
13:06 11.0 6.1 72 994.2 19.0 SW 19.7 0.0 1.1
13:07 11.0 6.1 72 994.2 18.3 S 19.7 0.0 1.1
13:08 11.0 6.1 72 994.1 17.4 S 19.7 0.0 1.1
13:09 11.0 6.1 72 994.1 14.5 SW 19.7 0.0 1.1
13:10 10.9 6.1 72 994.2 13.6 W 19.7 0.0 1.1
13:11 10.9 6.1 72 994.3 15.2 S 19.7 0.0 1.1
13:12 10.9 6.1 72 994.2 15.2 SW 19.7 0.0 1.1
13:14 10.8 6.2 73 994.4 15.2 SW 19.7 0.0 1.1
13:15 10.8 6.2 73 994.2 15.2 SW 19.7 0.0 1.1
13:16 10.8 6.2 73 994.3 16.8 SW 19.0 0.0 1.1
13:17 10.7 6.1 73 994.4 19.7 SW 19.7 0.0 1.1
13:18 10.7 6.1 73 994.1 19.0 WSW 19.7 0.0 1.1
13:19 10.6 6.0 73 994.4 15.9 W 19.7 0.0 1.1
13:20 10.6 6.0 73 994.2 13.6 SW 19.7 0.0 1.1
13:21 10.5 5.7 72 994.2 15.2 SW 19.7 0.0 1.1
13:22 10.4 5.6 72 994.2 15.2 SW 19.7 0.0 1.1
13:23 10.4 5.6 72 994.0 15.2 SW 19.7 0.0 1.1
13:24 10.4 5.8 73 994.1 13.0 W 19.7 0.0 1.1
13:25 10.4 5.8 73 994.1 10.7 SW 19.7 0.0 1.1
13:26 10.4 5.8 73 994.0 15.9 SW 19.7 0.0 1.1
13:27 10.4 5.8 73 994.0 15.9 SW 19.7 0.0 1.1
13:28 10.4 5.8 73 994.2 13.6 S 19.0 0.0 1.1
13:29 10.4 5.8 73 994.1 13.6 W 15.9 0.0 1.1
13:30 10.4 5.8 73 994.1 9.8 S 15.9 0.0 1.1
13:31 10.4 5.8 73 994.0 9.8 S 15.9 0.0 1.1
13:32 10.4 5.8 73 993.9 16.8 SW 16.8 0.0 1.1
13:33 10.4 5.8 73 994.0 14.5 SW 16.8 0.0 1.1
13:34 10.4 5.8 73 994.1 13.6 SW 16.8 0.0 1.1
13:35 10.5 5.9 73 994.1 14.5 SW 16.8 0.0 1.1
13:36 10.5 5.9 73 994.0 14.5 SW 16.8 0.0 1.1
13:37 10.5 5.7 72 993.9 15.9 SW 16.8 0.0 1.1
13:38 10.5 5.7 72 994.1 13.6 S 16.8 0.0 1.1
13:39 10.6 5.8 72 993.8 13.0 WSW 16.8 0.0 1.1
13:40 10.7 5.9 72 993.9 12.1 S 16.8 0.0 1.1
13:41 10.9 6.3 73 993.9 14.5 SW 16.8 0.0 1.1
13:42 11.0 6.3 73 994.0 17.4 W 17.4 0.0 1.1
13:43 11.2 6.5 73 994.0 17.4 SW 17.4 0.0 1.1
13:44 11.3 6.6 73 994.0 16.8 W 17.4 0.0 1.1
13:45 11.6 6.9 73 993.8 15.9 W 17.4 0.0 1.1
13:46 11.6 6.9 73 993.8 15.2 W 17.4 0.0 1.1
13:47 11.6 6.9 73 993.9 15.2 W 17.4 0.0 1.1
13:48 11.7 6.8 72 993.8 14.5 SW 17.4 0.0 1.1
13:49 11.7 6.8 72 993.9 13.6 W 17.4 0.0 1.1
13:50 11.7 6.8 72 993.8 15.9 SW 17.4 0.0 1.1
13:51 11.8 6.9 72 993.7 14.5 SW 17.4 0.0 1.1
13:52 11.8 6.9 72 993.8 14.5 W 17.4 0.0 1.1
13:53 11.9 7.0 72 993.8 18.3 W 18.3 0.0 1.1
13:54 11.9 6.8 71 993.7 14.5 SW 18.3 0.0 1.1
13:55 11.9 6.8 71 993.7 14.5 SW 18.3 0.0 1.1
13:56 11.9 6.8 71 993.9 15.2 SW 18.3 0.0 1.1
13:57 11.8 6.7 71 993.7 15.9 SW 18.3 0.0 1.1
13:58 11.8 6.5 70 993.7 13.0 W 18.3 0.0 1.1
13:59 11.8 6.5 70 993.8 13.6 S 18.3 0.0 1.1
14:00 11.7 6.4 70 993.8 18.3 SW 18.3 0.0 1.1
14:01 11.7 6.4 70 993.9 18.3 NW 18.3 0.0 1.1
14:02 11.7 6.4 70 993.7 18.3 NW 18.3 0.0 1.1
14:03 11.7 6.4 70 993.9 18.3 NW 18.3 0.0 1.1
14:04 11.7 6.4 70 993.9 18.3 NW 18.3 0.0 1.1
14:05 11.7 6.4 70 993.8 18.3 NW 18.3 0.0 1.1
14:06 11.3 6.0 70 993.8 17.4 S 18.3 0.0 1.1
14:07 11.2 5.9 70 994.1 12.1 S 18.3 0.0 1.1
14:08 11.2 5.9 70 993.9 15.9 SW 18.3 0.0 1.1
14:09 11.2 5.9 70 994.0 15.9 SW 18.3 0.0 1.1
14:10 11.2 5.9 70 994.1 16.8 W 18.3 0.0 1.1
14:11 11.2 5.9 70 994.1 16.8 W 18.3 0.0 1.1
14:12 11.2 6.1 71 993.6 17.4 SW 18.3 0.0 1.1
14:13 11.2 6.1 71 993.9 15.9 SW 18.3 0.0 1.1
14:14 11.3 6.2 71 993.9 17.4 SW 18.3 0.0 1.1
14:15 11.3 6.2 71 993.9 16.8 W 18.3 0.0 1.1
14:16 11.4 6.3 71 994.0 10.7 SW 17.4 0.0 1.1
14:17 11.4 6.3 71 993.9 11.4 SW 17.4 0.0 1.1
14:18 11.4 6.3 71 994.0 10.7 SW 17.4 0.0 1.1
14:19 11.4 6.3 71 994.0 13.6 SW 17.4 0.0 1.1
14:20 11.4 6.3 71 994.2 14.5 S 17.4 0.0 1.1
14:21 11.3 6.2 71 993.9 13.0 SW 17.4 0.0 1.1
14:22 11.3 6.2 71 993.9 15.2 SW 17.4 0.0 1.1
14:23 11.3 6.2 71 994.1 15.2 SW 17.4 0.0 1.1
14:24 11.3 6.2 71 994.0 12.1 SW 16.8 0.0 1.1
14:25 11.2 6.1 71 993.9 10.7 W 16.8 0.0 1.1
14:26 11.2 6.1 71 994.0 9.2 W 16.8 0.0 1.1
14:27 11.2 6.1 71 994.0 9.2 W 16.8 0.0 1.1
14:28 11.2 6.1 71 994.2 13.6 W 16.8 0.0 1.1
14:29 11.2 6.1 71 994.1 13.0 W 16.8 0.0 1.1
14:30 11.1 6.0 71 994.1 11.4 SW 15.2 0.0 1.1
14:31 11.1 6.2 72 994.0 11.4 SW 15.2 0.0 1.1
14:32 11.1 6.2 72 994.1 11.4 SW 15.2 0.0 1.1
14:33 11.1 6.2 72 994.0 10.7 W 15.2 0.0 1.1
14:34 11.1 6.2 72 994.0 10.7 SW 13.6 0.0 1.1
14:35 11.1 6.2 72 994.1 13.0 SW 13.6 0.0 1.1
14:36 11.1 6.2 72 994.2 13.6 SW 13.6 0.0 1.1
14:37 11.2 6.3 72 994.0 9.8 SW 13.6 0.0 1.1
14:38 11.2 6.3 72 994.1 9.2 SW 13.6 0.0 1.1
14:39 11.2 6.3 72 994.1 13.0 SW 13.6 0.0 1.1
14:40 11.2 6.3 72 994.3 13.0 SW 13.6 0.0 1.1
14:41 11.2 6.3 72 994.2 11.4 W 13.6 0.0 1.1
14:42 11.2 6.3 72 994.1 9.8 SW 13.6 0.0 1.1
14:43 11.3 6.4 72 994.1 9.8 SW 13.6 0.0 1.1
14:44 11.3 6.4 72 994.1 12.1 WSW 13.6 0.0 1.1
14:45 11.3 6.4 72 994.1 16.8 SW 16.8 0.0 1.1
14:46 11.3 6.4 72 994.0 13.6 W 16.8 0.0 1.1
14:47 11.3 6.4 72 994.2 13.6 W 16.8 0.0 1.1
14:48 11.3 6.4 72 994.2 13.0 SW 16.8 0.0 1.1
14:49 11.3 6.4 72 994.2 15.9 S 16.8 0.0 1.1
14:50 11.5 6.6 72 994.1 13.0 SW 16.8 0.0 1.1
14:51 11.5 6.6 72 994.0 10.7 SW 16.8 0.0 1.1
14:52 11.5 6.6 72 994.0 11.4 S 16.8 0.0 1.1
14:53 11.6 6.7 72 993.9 11.4 SW 16.8 0.0 1.1
14:54 11.6 6.7 72 994.2 13.6 S 16.8 0.0 1.1
14:55 11.6 6.7 72 994.0 15.2 SW 15.9 0.0 1.1
14:56 11.6 6.7 72 994.0 15.2 SW 15.9 0.0 1.1
14:57 11.5 6.4 71 994.2 12.1 W 15.9 0.0 1.1
14:58 11.5 6.4 71 994.1 13.6 SW 15.9 0.0 1.1
14:59 11.5 6.4 71 994.1 15.9 W 15.9 0.0 1.1
15:00 11.5 6.4 71 994.0 15.9 SW 15.9 0.0 1.1
15:01 11.5 6.2 70 994.2 12.1 SW 15.9 0.0 1.1
15:02 11.5 6.2 70 993.9 12.1 SW 15.9 0.0 1.1
15:03 11.5 6.2 70 994.0 12.1 SW 15.9 0.0 1.1
15:04 11.5 6.2 70 994.1 12.1 SW 15.9 0.0 1.1
15:05 11.5 6.2 70 994.0 12.1 SW 15.9 0.0 1.1
15:06 11.5 6.2 70 994.0 13.6 SW 15.9 0.0 1.1
15:07 11.4 6.1 70 994.0 13.0 W 15.9 0.0 1.1
15:08 11.5 6.2 70 994.1 12.1 SW 15.9 0.0 1.1
15:09 11.5 6.2 70 994.2 11.4 W 15.9 0.0 1.1
15:10 11.5 6.4 71 994.0 11.4 SW 15.9 0.0 1.1
15:11 11.5 6.4 71 994.0 11.4 SW 15.9 0.0 1.1
15:12 11.5 6.4 71 994.0 11.4 S 15.9 0.0 1.1
15:13 11.4 6.3 71 994.3 15.2 SW 15.9 0.0 1.1
15:14 11.4 6.3 71 994.1 14.5 S 15.9 0.0 1.1
15:15 11.4 6.3 71 994.2 15.2 SW 15.9 0.0 1.1
15:16 11.4 6.3 71 994.1 15.2 W 15.9 0.0 1.1
15:17 11.4 6.1 70 994.0 15.9 SW 15.9 0.0 1.1
15:18 11.3 6.0 70 994.3 17.4 SW 17.4 0.0 1.1
15:19 11.3 6.0 70 994.2 16.8 SW 17.4 0.0 1.1
15:20 11.3 6.0 70 994.3 13.0 SW 17.4 0.0 1.1
15:21 11.2 5.9 70 994.2 14.5 SW 17.4 0.0 1.1
15:22 11.2 5.9 70 994.3 14.5 WNW 17.4 0.0 1.1
15:23 11.2 5.9 70 994.1 15.2 W 17.4 0.0 1.1
15:24 11.1 5.8 70 994.2 15.2 S 17.4 0.0 1.1
15:25 11.1 5.8 70 994.2 13.6 W 17.4 0.0 1.1
15:26 11.0 5.7 70 994.7 25.1 SW 25.1 0.0 1.1
15:27 11.0 5.7 70 994.4 25.9 SW 25.9 0.0 1.1
15:28 11.0 5.7 70 994.4 22.8 NW 25.9 0.0 1.1
15:29 10.9 5.6 70 994.5 19.7 W 25.9 0.0 1.1
15:30 10.8 5.6 70 994.5 19.7 SW 25.9 0.0 1.1
15:31 10.7 5.5 70 994.5 15.9 WNW 25.9 0.0 1.1
15:32 10.7 5.5 70 994.5 15.9 WNW 25.9 0.0 1.1
15:33 10.5 5.3 70 994.7 21.3 W 25.9 0.0 1.1
15:34 10.5 5.3 70 994.6 12.1 W 25.9 0.0 1.1
15:35 10.4 5.2 70 994.6 13.6 W 25.9 0.0 1.1
15:36 10.3 5.1 70 994.6 14.5 W 25.9 0.8 1.1
15:37 10.2 5.0 70 994.6 13.0 SW 25.9 1.5 1.2
15:38 10.0 4.8 70 994.5 13.0 SW 22.8 3.0 1.3
15:39 10.0 4.8 70 994.4 13.0 WSW 21.3 3.0 1.3
15:40 9.8 4.6 70 994.4 10.7 W 21.3 3.0 1.3
15:41 9.7 4.5 70 994.4 10.7 SW 21.3 2.3 1.3
15:42 9.6 4.6 71 994.3 9.8 W 21.3 1.5 1.3
15:43 9.6 4.6 71 994.3 6.9 SW 14.5 0.0 1.3
15:44 9.5 4.5 71 994.3 9.2 W 14.5 0.0 1.3
15:45 9.5 4.5 71 994.6 9.2 W 14.5 0.0 1.3
15:46 9.4 4.4 71 994.3 8.3 W 13.0 0.0 1.3
15:47 9.4 4.4 71 994.3 8.3 W 13.0 0.0 1.3
15:48 9.4 4.4 71 994.2 7.6 SW 13.0 0.0 1.3
15:49 9.3 4.3 71 994.2 6.9 SW 13.0 0.0 1.3
15:50 9.3 4.3 71 994.2 6.9 SW 11.4 0.0 1.3
15:51 9.2 4.2 71 994.4 7.6 SW 11.4 0.0 1.3
15:52 9.2 4.2 71 994.2 7.6 S 11.4 0.0 1.3
15:53 9.1 4.3 72 994.3 5.4 SW 9.2 0.0 1.3
15:54 9.1 4.3 72 994.2 6.0 SW 9.2 0.0 1.3
15:55 9.1 4.3 72 994.4 6.0 SW 8.3 0.0 1.3
15:56 9.0 4.2 72 994.4 6.0 W 8.3 0.0 1.3
15:57 9.0 4.2 72 994.2 4.5 W 7.6 0.0 1.3
15:58 9.0 4.2 72 994.3 6.9 W 7.6 0.0 1.3
15:59 9.0 4.2 72 994.3 6.9 W 7.6 0.0 1.3
16:00 9.0 4.2 72 994.3 6.9 W 7.6 0.0 1.3
16:01 9.0 4.2 72 994.3 3.8 SW 7.6 0.0 1.3
16:02 9.0 4.2 72 994.5 3.8 SW 6.9 0.0 1.3
16:03 9.0 4.2 72 994.2 3.8 SW 6.9 0.0 1.3
16:04 9.0 4.2 72 994.3 3.8 SW 6.9 0.0 1.3
16:05 9.0 4.2 72 994.2 3.8 SW 6.9 0.0 1.3
16:06 8.8 4.2 73 994.5 7.6 SW 7.6 0.0 1.3
16:07 8.8 4.2 73 994.5 9.2 S 9.2 0.0 1.3
16:08 8.8 4.2 73 994.4 6.9 SW 9.2 0.0 1.3
16:09 8.8 4.2 73 994.5 6.9 SW 9.2 0.0 1.3
16:10 8.8 4.2 73 994.4 7.6 W 9.2 0.0 1.3
16:11 8.8 4.2 73 994.6 7.6 SW 9.2 0.0 1.3
16:12 8.8 4.2 73 994.3 7.6 SW 9.2 0.0 1.3
16:13 8.8 4.2 73 994.5 5.4 SW 9.2 0.0 1.3
16:14 8.8 4.2 73 994.5 5.4 SW 9.2 0.0 1.3
16:15 8.8 4.2 73 994.5 5.4 SW 9.2 0.0 1.3
16:16 8.8 4.4 74 994.5 4.5 SW 9.2 0.0 1.3
16:17 8.9 4.5 74 994.3 6.9 W 9.2 0.0 1.3
16:18 8.9 4.7 75 994.5 5.4 E 7.6 0.0 1.3
16:19 9.0 4.8 75 994.3 5.4 W 7.6 0.0 1.3
16:20 9.0 5.0 76 994.6 4.5 SW 7.6 0.0 1.3
16:21 9.2 5.4 77 994.5 6.9 SW 8.3 0.0 1.3
16:22 9.3 5.5 77 994.5 9.2 SW 9.2 0.0 1.3
16:23 9.3 5.5 77 994.6 8.3 SW 9.2 0.0 1.3
16:24 9.3 5.5 77 994.6 6.9 SW 9.2 0.0 1.3
16:25 9.3 5.5 77 994.5 7.6 SW 9.2 0.0 1.3
16:26 9.3 5.5 77 994.6 6.0 SW 9.2 0.0 1.3
16:27 9.3 5.5 77 994.7 7.6 W 9.2 0.0 1.3
16:28 9.3 5.5 77 994.7 7.6 W 9.2 0.0 1.3
16:29 9.4 5.6 77 994.5 7.6 SW 9.2 0.0 1.3
16:30 9.4 5.6 77 994.5 8.3 SW 9.2 0.0 1.3
16:31 9.4 5.6 77 994.6 8.3 S 9.2 0.0 1.3
16:32 9.4 5.6 77 994.4 8.3 S 9.2 0.0 1.3
16:33 9.4 5.6 77 994.5 6.9 SW 8.3 0.0 1.3
16:34 9.5 5.7 77 994.7 7.6 S 8.3 0.0 1.3
16:35 9.5 5.7 77 994.7 6.9 SW 8.3 0.0 1.3
16:36 9.5 5.7 77 994.5 7.6 W 8.3 0.0 1.3
16:37 9.5 5.7 77 994.6 7.6 SW 8.3 0.0 1.3
16:38 9.5 5.7 77 994.5 8.3 SW 9.8 0.0 1.3
16:39 9.6 5.8 77 994.7 7.6 SW 9.8 0.0 1.3
16:40 9.6 5.8 77 994.7 6.9 SW 9.8 0.0 1.3
16:41 9.6 5.8 77 994.5 6.9 SW 9.8 0.0 1.3
16:42 9.6 5.8 77 994.6 6.0 SW 9.8 0.0 1.3
16:43 9.6 5.8 77 994.5 6.0 SW 9.8 0.0 1.3
16:44 9.5 5.7 77 994.7 8.3 SW 9.8 0.0 1.3
16:45 9.5 5.7 77 994.6 9.8 SW 9.8 0.0 1.3
16:46 9.5 5.7 77 994.9 10.7 SW 10.7 0.0 1.3
16:47 9.5 5.7 77 994.8 10.7 SW 10.7 0.0 1.3
16:48 9.5 5.7 77 994.6 9.2 SW 10.7 0.0 1.3
16:49 9.5 5.7 77 994.6 9.2 SW 10.7 0.0 1.3
16:50 9.5 5.7 77 994.7 9.2 SW 10.7 0.0 1.3
16:51 9.5 5.5 76 994.8 10.7 SW 10.7 0.0 1.3
16:52 9.5 5.5 76 994.7 10.7 SW 10.7 0.0 1.3
16:53 9.5 5.5 76 994.7 10.7 SW 10.7 0.0 1.3
16:54 9.3 5.3 76 994.6 8.3 SW 10.7 0.0 1.3
16:55 9.3 5.3 76 994.7 10.7 SW 10.7 0.0 1.3
16:56 9.3 5.3 76 994.7 10.7 S 10.7 0.0 1.3
16:57 9.3 5.3 76 994.8 7.6 WSW 10.7 0.0 1.3
16:58 9.2 5.2 76 994.5 9.2 SW 10.7 0.0 1.3
16:59 9.2 5.2 76 994.8 7.6 SW 10.7 0.0 1.3
17:00 9.2 5.2 76 994.7 6.9 SW 10.7 0.0 1.3
17:01 9.1 4.9 75 994.8 9.2 SW 10.7 0.0 1.3
17:02 9.1 4.9 75 994.7 9.2 SW 10.7 0.0 1.3
17:03 9.1 4.9 75 994.6 9.2 SW 10.7 0.0 1.3
17:04 9.1 4.9 75 994.8 9.2 SW 10.7 0.0 1.3
17:05 9.1 4.9 75 994.6 9.2 SW 10.7 0.0 1.3
17:06 8.9 4.7 75 994.9 7.6 SW 10.7 0.0 1.3
17:07 8.9 4.7 75 994.7 6.9 WSW 9.2 0.0 1.3
17:08 8.8 4.6 75 994.7 5.4 SW 9.2 0.0 1.3
17:09 8.8 4.6 75 994.9 5.4 W 9.2 0.0 1.3
17:10 8.8 4.6 75 994.7 6.0 SW 9.2 0.0 1.3
17:11 8.8 4.6 75 994.5 6.0 SW 9.2 0.0 1.3
17:12 8.7 4.5 75 994.4 6.9 SW 9.2 0.0 1.3
17:13 8.6 4.4 75 994.5 6.0 SW 9.2 0.0 1.3
17:14 8.6 4.4 75 994.7 6.0 WSW 9.2 0.0 1.3
17:15 8.6 4.4 75 994.9 5.4 S 9.2 0.0 1.3
17:16 8.6 4.4 75 994.8 6.0 SW 7.6 0.0 1.3
17:17 8.5 4.3 75 994.7 6.0 SW 6.9 0.0 1.3
17:18 8.5 4.3 75 994.7 5.4 SW 6.9 0.0 1.3
17:19 8.5 4.3 75 994.8 4.5 SW 6.9 0.0 1.3
17:20 8.5 4.3 75 994.8 4.5 SW 6.9 0.0 1.3
17:21 8.5 4.3 75 994.7 4.5 SW 6.9 0.0 1.3
17:22 8.5 4.3 75 994.9 4.5 S 6.9 0.0 1.3
17:23 8.5 4.3 75 994.9 5.4 SW 6.9 0.0 1.3
17:24 8.4 4.2 75 995.1 7.6 S 7.6 0.8 1.4
17:25 8.4 4.2 75 994.9 11.4 S 11.4 1.5 1.4
17:26 8.5 4.3 75 994.9 7.6 W 11.4 2.3 1.5
17:27 8.5 4.3 75 994.9 9.2 SW 11.4 3.0 1.6
17:28 8.5 4.3 75 995.1 11.4 SW 11.4 3.0 1.6
17:29 8.5 4.3 75 994.7 6.9 NW 11.4 3.0 1.6
17:30 8.5 4.5 76 995.0 5.4 SW 11.4 2.3 1.6
17:31 8.5 4.5 76 994.8 6.0 W 11.4 1.5 1.6
17:32 8.5 4.5 76 994.9 6.9 SW 11.4 0.8 1.6
17:33 8.5 4.5 76 994.9 6.9 W 11.4 0.8 1.6
17:34 8.5 4.5 76 995.1 6.9 SW 11.4 0.0 1.6
17:35 8.5 4.5 76 994.8 4.5 W 11.4 0.0 1.6
17:36 8.6 4.6 76 995.0 6.0 SW 11.4 0.0 1.6
17:37 8.6 4.6 76 995.1 6.9 SW 11.4 0.0 1.6
17:38 8.6 4.8 77 994.9 6.9 W 11.4 0.0 1.6
17:39 8.6 4.8 77 995.0 6.9 W 6.9 0.0 1.6
17:40 8.6 4.8 77 995.0 5.4 SW 6.9 0.0 1.6
17:41 8.6 4.8 77 995.0 8.3 W 8.3 0.0 1.6
17:42 8.6 4.8 77 995.1 5.4 W 8.3 0.0 1.6
17:43 8.6 4.8 77 995.1 5.4 W 8.3 0.0 1.6
17:44 8.6 4.8 77 994.9 6.0 SW 8.3 0.0 1.6
17:45 8.6 4.8 77 995.3 6.0 W 8.3 0.0 1.6
17:46 8.5 4.7 77 995.2 8.3 W 8.3 0.0 1.6
17:47 8.5 4.7 77 995.1 7.6 SW 8.3 0.0 1.6
17:48 8.5 4.7 77 995.1 7.6 SW 8.3 0.0 1.6
17:49 8.5 4.7 77 995.3 6.9 SW 8.3 0.0 1.6
17:50 8.5 4.7 77 995.3 6.9 SW 8.3 0.0 1.6
17:51 8.5 4.9 78 995.3 7.6 SW 8.3 0.0 1.6
17:52 8.5 4.9 78 995.2 6.9 SW 8.3 0.0 1.6
17:53 8.5 4.9 78 995.2 4.5 SW 8.3 0.0 1.6
17:54 8.5 4.9 78 995.1 6.9 SW 8.3 0.0 1.6
17:55 8.5 4.9 78 995.2 6.9 W 8.3 0.0 1.6
17:56 8.4 4.8 78 995.3 5.4 W 8.3 0.0 1.6
17:57 8.4 4.8 78 995.4 6.0 SW 7.6 0.0 1.6
17:58 8.4 4.8 78 995.4 4.5 SW 7.6 0.0 1.6
17:59 8.4 4.8 78 995.3 4.5 W 7.6 0.0 1.6
18:00 8.4 4.8 78 995.3 4.5 SW 7.6 0.0 1.6
18:01 8.4 4.8 78 995.3 4.5 SW 6.9 0.0 1.6
18:02 8.4 4.8 78 995.5 4.5 SW 6.9 0.0 1.6
18:03 8.4 4.8 78 995.5 4.5 SW 6.9 0.0 1.6
18:04 8.4 4.8 78 995.2 4.5 SW 6.9 0.0 1.6
18:05 8.4 4.8 78 995.5 4.5 SW 6.0 0.0 1.6
18:06 8.4 4.8 78 995.3 4.5 SW 6.0 0.0 1.6
18:07 8.2 4.6 78 995.5 9.2 W 9.2 0.0 1.6
18:08 8.2 4.6 78 995.6 9.2 W 9.2 0.0 1.6
18:09 8.2 4.6 78 995.3 6.9 W 9.2 0.0 1.6
18:10 8.2 4.6 78 995.2 5.4 W 9.2 0.0 1.6
18:11 8.2 4.6 78 995.7 4.5 W 9.2 0.0 1.6
18:12 8.2 4.6 78 995.4 6.9 W 9.2 0.0 1.6
18:13 8.2 4.4 77 995.5 5.4 W 9.2 0.0 1.6
18:14 8.2 4.4 77 995.5 6.0 SW 9.2 0.0 1.6
18:15 8.2 4.4 77 995.4 4.5 W 9.2 0.0 1.6
18:16 8.2 4.4 77 995.4 4.5 W 9.2 0.0 1.6
18:17 8.2 4.4 77 995.7 3.1 SW 9.2 0.0 1.6
18:18 8.1 4.3 77 995.4 4.5 WSW 6.9 0.0 1.6
18:19 8.1 4.3 77 995.4 5.4 W 6.9 0.0 1.6
18:20 8.1 4.3 77 995.6 4.5 W 6.9 0.0 1.6
18:21 8.1 4.3 77 995.5 5.4 SW 6.9 0.0 1.6
18:22 8.1 4.3 77 995.6 3.8 SW 6.9 0.0 1.6
18:23 8.0 4.2 77 995.6 4.5 W 6.0 0.0 1.6
18:24 8.0 4.2 77 995.6 3.1 W 6.0 0.0 1.6
18:25 8.0 4.2 77 995.8 3.8 W 5.4 0.0 1.6
18:26 7.9 4.1 77 995.7 4.5 SW 5.4 0.0 1.6
18:27 7.9 4.1 77 995.7 3.8 SW 5.4 0.0 1.6
18:28 7.9 4.1 77 995.5 3.8 W 5.4 0.0 1.6
18:29 7.9 4.1 77 995.6 5.4 SW 5.4 0.0 1.6
18:30 7.9 4.1 77 995.6 6.0 W 6.0 0.0 1.6
18:31 7.9 4.1 77 995.8 6.0 WNW 6.0 0.0 1.6
18:32 7.8 4.0 77 995.8 5.4 W 6.0 0.0 1.6
18:33 7.8 4.0 77 995.5 4.5 W 6.0 0.0 1.6
18:34 7.8 4.0 77 995.9 5.4 W 6.0 0.0 1.6
18:35 7.8 4.0 77 995.6 6.9 W 6.9 0.0 1.6
18:36 7.8 4.0 77 995.8 6.0 W 6.9 0.0 1.6
18:37 7.8 4.0 77 995.7 5.4 SW 6.9 0.0 1.6
18:38 7.8 4.0 77 995.8 5.4 W 6.9 0.0 1.6
18:39 7.8 4.0 77 995.6 5.4 W 6.9 0.0 1.6
18:40 7.8 4.0 77 995.9 4.5 W 6.9 0.0 1.6
18:41 7.7 3.9 77 995.7 4.5 W 6.9 0.0 1.6
18:42 7.7 3.9 77 995.8 3.8 W 6.9 0.0 1.6
18:43 7.7 3.9 77 995.9 3.8 W 6.9 0.0 1.6
18:44 7.7 3.9 77 995.9 3.8 W 6.9 0.0 1.6
18:45 7.7 3.9 77 996.0 3.8 W 6.0 0.0 1.6
18:46 7.7 3.9 77 995.9 3.8 W 5.4 0.0 1.6
18:47 7.7 3.9 77 995.9 4.5 W 5.4 0.0 1.6
18:48 7.7 3.9 77 995.8 5.4 W 5.4 0.0 1.6
18:49 7.6 3.8 77 995.8 3.1 W 5.4 0.0 1.6
18:50 7.6 3.8 77 995.9 3.8 NW 5.4 0.0 1.6
18:51 7.6 3.6 76 995.8 3.8 W 5.4 0.0 1.6
18:52 7.6 3.6 76 995.7 3.8 W 5.4 0.0 1.6
18:53 7.6 3.6 76 995.7 3.8 W 5.4 0.0 1.6
18:54 7.6 3.6 76 996.0 3.1 W 5.4 0.0 1.6
18:55 7.6 3.6 76 995.9 3.1 W 5.4 0.0 1.6
18:56 7.5 3.5 76 996.0 3.8 SW 5.4 0.0 1.6
18:57 7.5 3.5 76 995.8 3.8 S 5.4 0.0 1.6
18:58 7.5 3.5 76 995.9 2.2 SW 5.4 0.0 1.6
18:59 7.5 3.5 76 995.9 2.2 SW 3.8 0.0 1.6
19:00 7.5 3.5 76 996.0 2.2 NW 3.8 0.0 1.6
19:01 7.5 3.5 76 995.8 3.8 W 3.8 0.0 1.6
19:02 7.5 3.5 76 996.0 3.8 W 3.8 0.0 1.6
19:03 7.5 3.5 76 996.0 3.8 W 3.8 0.0 1.6
19:04 7.5 3.5 76 996.0 3.8 W 3.8 0.0 1.6
19:05 7.5 3.5 76 996.1 3.8 W 3.8 0.0 1.6
19:06 7.5 3.5 76 996.0 3.8 W 3.8 0.0 1.6
19:07 7.4 4.5 82 996.1 3.1 W 3.8 0.0 1.6
19:08 7.4 4.5 82 996.0 3.1 W 3.8 0.0 1.6
19:09 7.4 4.5 82 996.0 1.6 W 3.8 0.0 1.6
19:10 7.4 4.5 82 996.0 2.2 W 3.8 0.0 1.6
19:11 7.4 4.5 82 996.1 2.2 W 3.8 0.0 1.6
19:12 7.4 4.5 82 996.1 2.2 W 3.8 0.0 1.6
19:13 7.3 4.4 82 996.0 2.2 W 3.8 0.0 1.6
19:14 7.3 4.4 82 996.1 2.2 SW 3.8 0.0 1.6
19:15 7.2 4.3 82 996.3 2.2 SW 3.8 0.0 1.6
19:16 7.2 4.3 82 996.2 2.2 SW 3.8 0.0 1.7
19:17 7.2 4.3 82 996.1 2.2 SW 3.1 0.8 1.7
19:18 7.2 4.3 82 996.0 2.2 W 3.1 0.8 1.7
19:19 7.1 4.2 82 996.1 2.2 SW 2.2 0.8 1.7
19:20 7.1 4.2 82 996.1 2.2 SW 2.2 0.8 1.7
19:21 7.1 4.2 82 995.9 2.2 SW 2.2 0.8 1.7
19:22 7.1 4.2 82 996.2 1.6 SW 2.2 0.0 1.7
19:23 7.0 4.1 82 996.1 1.6 SW 2.2 0.0 1.7
19:24 7.0 4.1 82 996.4 2.2 W 2.2 0.0 1.7
19:25 7.0 4.1 82 996.2 2.2 W 2.2 0.0 1.7
19:26 7.0 4.1 82 996.3 2.2 W 2.2 0.0 1.7
19:27 7.0 4.1 82 996.1 1.6 W 2.2 0.0 1.7
19:28 7.0 4.1 82 996.3 3.1 W 3.1 0.0 1.7
19:29 6.9 4.0 82 995.8 2.2 SW 3.1 0.0 1.7
19:30 6.9 4.0 82 996.0 3.1 S 3.1 0.0 1.7
19:31 6.9 4.0 82 996.1 3.1 S 3.1 0.0 1.7
19:32 6.9 4.0 82 996.2 2.2 SW 3.1 0.0 1.7
19:33 6.9 4.0 82 996.1 2.2 W 3.1 0.0 1.7
19:34 6.9 4.0 82 996.1 1.6 SW 3.1 0.0 1.7
19:35 6.9 4.0 82 996.0 2.2 S 3.1 0.0 1.7
19:36 6.9 4.0 82 996.0 2.2 S 3.1 0.0 1.7
19:37 6.8 3.9 82 996.2 1.6 S 3.1 0.0 1.7
19:38 6.8 3.9 82 996.3 1.6 S 3.1 0.0 1.7
19:39 6.8 3.9 82 996.2 1.6 S 3.1 0.0 1.7
19:40 6.8 3.9 82 996.2 1.6 S 3.1 0.0 1.7
19:41 6.8 3.9 82 996.3 2.2 S 3.1 0.0 1.7
19:42 6.8 3.9 82 996.0 2.2 SE 2.2 0.0 1.7
19:43 6.8 3.9 82 996.1 1.6 S 2.2 0.0 1.7
19:44 6.8 3.9 82 996.0 2.2 S 2.2 0.0 1.7
19:45 6.8 3.9 82 996.1 1.6 S 2.2 0.0 1.7
19:46 6.8 3.9 82 996.1 1.6 S 2.2 0.0 1.7
19:47 6.8 3.9 82 996.3 1.6 S 2.2 0.0 1.7
19:48 6.8 3.9 82 996.2 1.6 S 2.2 0.0 1.7
19:49 6.8 3.9 82 996.2 1.6 S 2.2 0.0 1.7
19:50 6.8 3.9 82 996.2 0.7 S 2.2 0.0 1.7
19:51 6.8 3.9 82 996.2 1.6 S 2.2 0.0 1.7
19:52 6.8 3.9 82 996.2 1.6 S 2.2 0.0 1.7
19:53 6.8 3.9 82 996.2 2.2 SW 2.2 0.0 1.7
19:54 6.8 3.9 82 996.2 1.6 SW 2.2 0.0 1.7
19:55 6.8 3.9 82 996.4 1.6 SW 2.2 0.0 1.7
19:56 6.8 3.9 82 996.2 1.6 SW 2.2 0.0 1.7
19:57 6.8 3.9 82 996.2 1.6 SW 2.2 0.0 1.7
19:58 6.8 3.9 82 996.1 2.2 SW 2.2 0.0 1.7
19:59 6.8 3.9 82 996.1 1.6 SW 2.2 0.0 1.7
20:00 6.8 3.9 82 996.2 1.6 SW 2.2 0.0 1.7
20:01 6.8 3.9 82 996.1 0.7 SW 2.2 0.0 1.7
20:02 6.8 3.9 82 996.1 0.7 SW 2.2 0.0 1.7
20:03 6.8 3.9 82 996.4 0.0 SW 2.2 0.0 1.7
20:04 6.8 3.9 82 996.2 0.7 SW 2.2 0.0 1.7
20:05 6.8 3.9 82 996.1 0.0 SW 2.2 0.0 1.7
20:06 6.8 3.9 82 996.4 0.7 SW 2.2 0.0 1.7
20:07 6.8 3.9 82 996.3 0.7 SW 2.2 0.0 1.7
20:08 6.8 3.9 82 996.3 0.7 SW 2.2 0.0 1.7
20:09 6.8 3.9 82 996.0 0.7 SW 1.6 0.0 1.7
20:10 6.8 3.9 82 996.2 0.7 SW 1.6 0.0 1.7
20:11 6.8 3.9 82 996.1 1.6 SW 1.6 0.0 1.7
20:12 6.8 3.9 82 996.6 2.2 SW 2.2 0.0 1.7
20:13 6.8 3.9 82 996.5 2.2 N 2.2 0.0 1.7
20:14 6.8 3.9 82 996.4 2.2 N 2.2 0.0 1.7
20:15 6.8 3.9 82 996.3 4.5 NW 4.5 0.0 1.7
20:16 6.8 4.1 83 996.5 4.5 N 4.5 0.0 1.7
20:17 6.8 4.1 83 996.4 5.4 W 5.4 0.0 1.7
20:18 6.9 4.2 83 996.7 9.2 SW 9.2 0.0 1.7
20:19 6.9 4.2 83 996.4 10.7 W 10.7 0.0 1.7
20:20 6.9 4.2 83 996.6 14.5 W 14.5 0.0 1.7
20:21 6.9 4.2 83 996.2 14.5 W 14.5 0.0 1.7
20:22 7.1 4.4 83 996.5 9.8 SW 14.5 0.0 1.7
20:23 7.1 4.4 83 996.5 9.8 SW 14.5 0.0 1.7
20:24 7.1 4.4 83 996.5 8.3 W 14.5 0.0 1.7
20:25 7.2 4.5 83 996.4 9.8 W 14.5 0.0 1.7
20:26 7.3 4.6 83 996.3 6.9 W 14.5 0.0 1.7
20:27 7.3 4.6 83 996.3 7.6 SW 14.5 0.0 1.7
20:28 7.4 4.7 83 996.3 10.7 SW 14.5 0.0 1.7
20:29 7.4 4.7 83 996.5 6.9 W 14.5 0.0 1.7
20:30 7.5 4.1 79 996.5 7.6 SW 14.5 0.0 1.7
20:31 7.5 4.1 79 996.6 6.9 W 10.7 0.0 1.7
20:32 7.6 4.2 79 996.5 10.7 W 10.7 0.0 1.7
20:33 7.6 4.2 79 996.6 10.7 W 10.7 0.0 1.7
20:34 7.6 4.2 79 996.5 8.3 W 10.7 0.0 1.7
20:35 7.7 4.3 79 996.4 11.4 SW 11.4 0.0 1.7
20:36 7.8 4.4 79 996.4 9.8 W 11.4 0.0 1.7
20:37 7.8 4.4 79 996.5 9.8 W 11.4 0.0 1.7
20:38 7.8 4.4 79 996.3 8.3 SW 11.4 0.0 1.7
20:39 7.8 4.4 79 996.3 8.3 S 11.4 0.0 1.7
20:40 7.9 4.5 79 996.2 10.7 W 11.4 0.0 1.7
20:41 7.9 4.3 78 996.3 9.2 WSW 11.4 0.0 1.7
20:42 7.9 4.3 78 996.5 9.2 W 11.4 0.0 1.7
20:43 7.9 4.3 78 996.3 8.3 SW 11.4 0.0 1.7
20:44 7.9 4.3 78 996.4 9.8 SW 11.4 0.0 1.7
20:45 8.0 4.4 78 996.3 9.8 W 11.4 0.0 1.7
20:46 8.0 4.4 78 996.4 9.2 W 10.7 0.0 1.7
20:47 8.0 4.4 78 996.4 9.8 WSW 10.7 0.0 1.7
20:48 8.0 4.4 78 996.2 7.6 W 10.7 0.0 1.7
20:49 8.0 4.4 78 996.3 9.2 W 10.7 0.0 1.7
20:50 8.0 4.4 78 996.4 6.9 W 10.7 0.0 1.7
20:51 8.1 4.5 78 996.3 8.3 SW 9.8 0.0 1.7
20:52 8.1 4.5 78 996.3 8.3 SW 9.8 0.0 1.7
20:53 8.1 4.5 78 996.4 6.9 W 9.8 0.0 1.7
20:54 8.1 4.5 78 996.3 6.9 W 9.8 0.0 1.7
20:55 8.1 4.5 78 996.5 6.0 N 9.8 0.0 1.7
20:56 8.1 4.3 77 996.5 5.4 W 9.8 0.0 1.7
20:57 8.1 4.3 77 996.5 4.5 WSW 9.8 0.0 1.7
20:58 8.1 4.3 77 996.3 5.4 W 9.2 0.0 1.7
20:59 8.1 4.3 77 996.4 4.5 W 8.3 0.8 1.8
21:00 8.1 4.3 77 996.6 4.5 W 8.3 0.8 1.8
21:01 8.1 4.3 77 996.4 4.5 W 8.3 0.8 1.8
21:02 8.1 4.3 77 996.3 4.5 W 6.9 0.8 1.8
21:03 8.1 4.3 77 996.5 4.5 W 6.9 0.8 1.8
21:04 8.1 4.3 77 996.5 4.5 W 6.9 0.0 1.8
21:05 8.1 4.3 77 996.4 4.5 W 6.9 0.0 1.8
21:06 8.2 4.4 77 996.5 5.4 SW 6.9 0.0 1.8
21:07 8.2 4.4 77 996.5 5.4 SW 5.4 0.0 1.8
21:08 8.2 4.4 77 996.6 5.4 W 5.4 0.0 1.8
21:09 8.2 4.4 77 996.6 6.0 W 6.0 0.0 1.8
21:10 8.2 4.4 77 996.5 6.0 W 6.0 0.0 1.8
21:11 8.2 4.4 77 996.7 6.0 W 6.0 0.0 1.8
21:12 8.2 4.4 77 996.6 6.0 W 6.0 0.0 1.8
21:13 8.2 4.4 77 996.8 4.5 W 6.0 0.0 1.8
21:14 8.2 4.4 77 996.6 6.0 W 6.0 0.0 1.8
21:15 8.2 4.4 77 996.5 5.4 W 6.0 0.0 1.8
21:16 8.2 4.4 77 996.6 4.5 W 6.0 0.0 1.8
21:17 8.1 4.3 77 996.6 6.0 W 6.0 0.0 1.8
21:18 8.1 4.3 77 996.7 5.4 W 6.0 0.0 1.8
21:19 8.1 4.3 77 996.7 4.5 SW 6.0 0.0 1.8
21:20 8.1 4.3 77 996.6 4.5 W 6.0 0.0 1.8
21:21 8.0 4.2 77 996.7 6.0 SW 6.0 0.0 1.8
21:22 8.0 4.2 77 996.8 5.4 W 6.0 0.0 1.8
21:23 8.0 4.2 77 996.8 4.5 SW 6.0 0.0 1.8
21:24 8.0 4.2 77 996.9 4.5 W 6.0 0.0 1.8
21:25 7.9 4.1 77 997.0 3.8 W 6.0 0.0 1.8
21:26 7.9 4.1 77 996.7 6.9 W 6.9 0.0 1.8
21:27 7.9 4.1 77 996.8 6.9 W 6.9 0.0 1.8
21:28 7.9 4.1 77 996.6 6.0 W 6.9 0.0 1.8
21:29 7.9 4.1 77 996.8 5.4 W 6.9 0.0 1.8
21:30 7.9 4.1 77 996.7 6.0 SW 6.9 0.0 1.8
21:31 7.9 4.1 77 996.7 6.0 SW 6.9 0.0 1.8
21:32 7.9 4.1 77 996.6 6.9 W 6.9 0.0 1.8
21:33 7.9 4.1 77 996.6 7.6 W 7.6 0.0 1.8
21:34 7.9 4.1 77 996.9 8.3 W 8.3 0.0 1.8
21:35 7.9 4.1 77 996.8 8.3 W 8.3 0.0 1.8
21:36 8.0 4.2 77 996.8 9.2 WSW 9.2 0.0 1.8
21:37 8.0 4.2 77 996.6 9.2 SW 9.2 0.0 1.8
21:38 8.1 4.3 77 996.6 8.3 W 9.2 0.0 1.8
21:39 8.1 4.5 78 996.7 8.3 W 9.2 0.0 1.8
21:40 8.1 4.5 78 996.6 6.9 WSW 9.2 0.0 1.8
21:41 8.1 4.5 78 996.8 8.3 WSW 9.2 0.0 1.8
21:42 8.2 4.6 78 996.8 13.0 W 13.0 0.0 1.8
21:43 8.2 4.6 78 996.9 9.2 W 13.0 0.0 1.8
21:44 8.2 4.6 78 996.8 14.5 W 14.5 0.0 1.8
21:45 8.3 4.7 78 996.8 11.4 SW 14.5 0.0 1.8
21:46 8.3 4.7 78 996.8 9.2 SW 14.5 0.0 1.8
21:47 8.3 4.7 78 996.8 9.2 SW 14.5 0.0 1.8
21:48 8.3 4.7 78 996.9 11.4 W 14.5 0.0 1.8
21:49 8.4 5.0 79 996.9 9.8 SW 14.5 0.0 1.8
21:50 8.4 5.0 79 996.8 12.1 W 14.5 0.0 1.8
21:51 8.5 5.1 79 996.8 12.1 SW 14.5 0.0 1.8
21:52 8.5 5.1 79 996.6 14.5 W 14.5 0.0 1.8
21:53 8.5 5.1 79 996.9 9.2 SW 14.5 0.0 1.8
21:54 8.5 5.1 79 996.7 10.7 W 14.5 0.0 1.8
21:55 8.5 5.1 79 996.9 9.2 W 14.5 0.0 1.8
21:56 8.5 5.1 79 996.8 7.6 WNW 14.5 0.0 1.8
21:57 8.5 5.1 79 996.7 7.6 W 14.5 0.0 1.8
21:58 8.5 5.1 79 996.7 9.2 W 14.5 0.0 1.8
21:59 8.5 5.1 79 996.8 7.6 W 14.5 0.0 1.8
22:00 8.5 4.9 78 996.8 9.2 W 14.5 0.0 1.8
22:01 8.5 4.9 78 996.9 9.2 SW 14.5 0.0 1.8
22:02 8.5 4.9 78 996.9 7.6 W 10.7 0.0 1.8
22:03 8.5 4.9 78 996.8 7.6 W 10.7 0.0 1.8
22:04 8.5 4.9 78 996.8 9.8 SW 10.7 0.0 1.8
22:05 8.5 4.9 78 996.8 8.3 W 9.8 0.0 1.8
22:06 8.4 4.8 78 997.0 8.3 SW 9.8 0.0 1.8
22:07 8.4 4.8 78 997.0 8.3 SW 9.8 0.0 1.8
22:08 8.4 4.8 78 997.1 9.2 SW 9.8 0.0 1.8
22:09 8.4 4.8 78 997.1 8.3 SW 9.8 0.0 1.8
22:10 8.4 4.8 78 996.8 9.2 W 9.8 0.0 1.8
22:11 8.4 4.8 78 996.9 7.6 W 9.8 0.0 1.8
22:12 8.4 4.8 78 996.9 9.2 W 9.8 0.0 1.8
22:13 8.4 4.8 78 997.1 7.6 W 9.8 0.0 1.8
22:14 8.4 4.8 78 996.9 9.2 W 9.8 0.0 1.8
22:15 8.3 4.7 78 996.8 9.2 W 9.2 0.0 1.8
22:16 8.3 4.7 78 996.9 7.6 SW 9.2 0.0 1.8
22:17 8.3 4.7 78 996.9 7.6 W 9.2 0.0 1.8
22:18 8.3 4.7 78 997.0 7.6 WNW 9.2 0.0 1.8
22:19 8.3 4.7 78 997.0 7.6 WNW 9.2 0.0 1.8
22:20 8.3 4.7 78 996.8 7.6 WSW 9.2 0.0 1.8
22:21 8.3 4.7 78 996.8 7.6 SW 9.2 0.0 1.8
22:22 8.3 4.7 78 997.0 6.9 SW 9.2 0.0 1.8
22:23 8.3 4.7 78 996.8 9.2 W 9.2 0.0 1.8
22:24 8.3 4.7 78 996.8 9.8 SW 9.8 0.0 1.8
22:25 8.2 4.4 77 996.8 7.6 WNW 9.8 0.0 1.8
22:26 8.2 4.4 77 996.9 8.3 W 9.8 0.0 1.8
22:27 8.2 4.4 77 996.9 7.6 WSW 9.8 0.0 1.8
22:28 8.2 4.4 77 996.9 7.6 SW 9.8 0.0 1.8
22:29 8.2 4.4 77 997.0 8.3 SW 9.8 0.0 1.8
22:30 8.2 4.4 77 996.9 5.4 W 9.8 0.0 1.8
22:31 8.2 4.4 77 996.8 8.3 SW 9.8 0.0 1.8
22:32 8.2 4.4 77 996.9 7.6 W 9.8 0.0 1.8
22:33 8.2 4.4 77 996.8 6.9 WSW 9.8 0.0 1.8
22:34 8.2 4.4 77 996.9 8.3 SW 9.8 0.0 1.8
22:35 8.2 4.4 77 996.9 6.9 W 8.3 0.0 1.8
22:36 8.2 4.4 77 997.0 6.9 W 8.3 0.0 1.8
22:37 8.2 4.4 77 996.8 8.3 SW 8.3 0.0 1.8
22:38 8.2 4.4 77 996.8 6.9 SW 8.3 0.0 1.8
22:39 8.2 4.6 78 996.8 7.6 SW 8.3 0.0 1.8
22:40 8.2 4.6 78 996.8 7.6 W 8.3 0.0 1.8
22:41 8.2 4.6 78 996.8 7.6 W 8.3 0.0 1.8
22:42 8.3 4.7 78 997.0 7.6 W 8.3 0.0 1.8
22:43 8.3 4.7 78 996.9 6.9 W 8.3 0.0 1.8
22:44 8.3 4.7 78 997.0 9.2 SW 9.2 0.0 1.8
22:45 8.3 4.7 78 996.8 7.6 W 9.2 0.0 1.8
22:46 8.3 4.7 78 996.8 5.4 SW 9.2 0.0 1.8
22:47 8.3 4.7 78 997.0 6.9 W 9.2 0.0 1.8
22:48 8.3 4.7 78 997.0 6.9 W 9.2 0.0 1.8
22:49 8.3 4.7 78 996.9 6.0 SW 9.2 0.0 1.8
22:50 8.3 4.7 78 997.1 7.6 W 9.2 0.0 1.8
22:51 8.3 4.7 78 996.8 7.6 W 9.2 0.0 1.8
22:52 8.3 4.7 78 996.9 6.9 W 9.2 0.0 1.8
22:53 8.3 4.7 78 997.0 8.3 SW 9.2 0.0 1.8
22:54 8.3 4.9 79 996.8 7.6 W 9.2 0.0 1.8
22:55 8.3 4.9 79 997.0 7.6 SW 8.3 0.0 1.8
22:56 8.4 5.0 79 997.0 8.3 WSW 8.3 0.0 1.8
22:57 8.4 5.0 79 996.9 9.8 W 9.8 0.0 1.8
22:58 8.4 5.0 79 997.1 10.7 SW 10.7 0.0 1.8
22:59 8.4 5.0 79 997.1 10.7 SW 10.7 0.0 1.8
23:00 8.5 5.1 79 997.1 9.8 WNW 10.7 0.0 1.8
23:01 8.5 5.1 79 997.1 9.8 WNW 10.7 0.0 1.8
23:02 8.5 5.1 79 997.2 9.8 WNW 10.7 0.0 1.8
23:03 8.5 5.1 79 997.2 9.8 WNW 10.7 0.0 1.8
23:04 8.5 5.1 79 997.1 9.8 WNW 10.7 0.0 1.8
23:05 8.5 5.1 79 997.3 9.8 WNW 10.7 0.0 1.8
23:06 8.5 5.1 79 997.2 9.8 WNW 10.7 0.0 1.8
23:07 8.7 5.4 80 997.0 13.0 SW 13.0 2.3 2.0
23:08 8.7 5.4 80 997.0 11.4 W 13.0 2.3 2.0
23:09 8.7 5.4 80 997.1 23.5 W 23.5 6.0 2.3
23:10 8.7 5.3 79 997.0 14.5 W 23.5 6.8 2.4
23:11 8.6 5.2 79 997.3 12.1 WNW 23.5 7.6 2.4
23:12 8.6 5.2 79 997.0 13.0 W 23.5 5.3 2.5
23:13 8.6 5.2 79 996.9 13.0 W 23.5 6.0 2.5
23:14 8.6 5.2 79 996.8 9.2 W 23.5 2.3 2.5
23:15 8.5 5.1 79 997.0 9.2 W 23.5 1.5 2.5
23:16 8.5 5.1 79 996.8 8.3 W 23.5 0.8 2.5
23:17 8.5 4.9 78 996.9 7.6 W 23.5 0.8 2.5
23:19 8.4 4.8 78 997.0 6.0 W 15.9 0.0 2.5
23:20 8.4 4.8 78 997.1 6.0 W 14.5 0.0 2.5
23:21 8.4 4.8 78 997.0 5.4 N 13.0 0.0 2.5
23:22 8.4 4.8 78 997.0 8.3 W 13.0 0.0 2.5
23:23 8.3 4.7 78 996.9 8.3 W 9.2 0.0 2.5
23:24 8.3 4.7 78 996.8 8.3 SW 9.2 0.0 2.5
23:25 8.3 4.7 78 997.1 9.2 W 9.2 0.0 2.5
23:26 8.4 4.8 78 997.1 9.2 W 9.2 0.0 2.5
23:27 8.4 4.8 78 996.9 9.8 W 9.8 0.8 2.5
23:28 8.4 4.8 78 997.0 7.6 W 9.8 1.5 2.6
23:29 8.4 4.8 78 997.1 9.2 W 9.8 2.3 2.6
23:30 8.5 4.9 78 997.2 8.3 W 9.8 2.3 2.6
23:31 8.5 4.9 78 997.0 6.0 SW 9.8 3.0 2.7
23:32 8.5 4.9 78 997.2 5.4 WNW 9.8 2.3 2.7
23:33 8.5 4.9 78 997.0 6.9 W 9.8 2.3 2.8
23:34 8.5 5.1 79 997.1 8.3 SW 9.8 1.5 2.8
23:35 8.5 5.1 79 996.9 6.0 N 9.8 1.5 2.8
23:36 8.5 5.1 79 997.0 6.0 N 9.8 0.8 2.8
23:37 8.6 5.2 79 996.9 8.3 W 9.2 0.8 2.8
23:38 8.6 5.2 79 996.9 6.0 W 9.2 0.0 2.8
23:39 8.6 5.2 79 997.0 6.0 W 8.3 0.0 2.8
23:40 8.6 5.2 79 997.1 6.0 W 8.3 0.0 2.8
23:41 8.6 5.2 79 996.9 6.0 W 8.3 0.0 2.8
23:42 8.6 5.2 79 996.9 6.9 W 8.3 0.0 2.8
23:43 8.6 5.2 79 996.8 6.0 W 8.3 0.0 2.8
23:44 8.5 5.1 79 996.9 5.4 W 8.3 0.0 2.8
23:45 8.5 5.1 79 997.1 6.0 SW 8.3 0.0 2.8
23:46 8.5 5.1 79 997.0 6.9 W 8.3 0.0 2.8
23:47 8.5 5.1 79 996.9 6.9 SW 8.3 0.0 2.8
23:48 8.5 5.1 79 996.7 6.9 SW 6.9 0.0 2.8
23:49 8.5 5.1 79 996.8 6.9 W 8.3 0.0 2.8
23:50 8.5 5.1 79 997.0 4.5 W 8.3 0.0 2.8
23:51 8.5 5.1 79 996.9 6.0 W 8.3 0.0 2.8
23:52 8.5 5.1 79 997.0 7.6 SW 8.3 0.0 2.8
23:53 8.5 5.1 79 997.0 5.4 SW 8.3 0.0 2.8
23:54 8.4 5.0 79 997.0 8.3 SW 8.3 0.8 2.8
23:55 8.4 5.0 79 997.0 8.3 SW 8.3 0.8 2.8
23:56 8.5 5.1 79 997.1 4.5 WNW 8.3 0.8 2.8
23:57 8.4 5.0 79 996.9 5.4 SW 8.3 0.8 2.8
23:58 8.4 5.0 79 997.0 5.4 SW 8.3 0.8 2.8
23:59 8.4 5.0 79 997.1 5.4 SW 8.3 0.0 2.8

 

 

UK - WEATHER STATION TOPSITES - UK World Weather Websites

Copyright © Carnkie Weather 2009 - 2020.